<?xml version="1.0" encoding="UTF-8" standalone="no" ?><gpx xmlns="http://www.topografix.com/GPX/1/1" xmlns:gpxx="http://www.garmin.com/xmlschemas/GpxExtensions/v3" xmlns:wptx1="http://www.garmin.com/xmlschemas/WaypointExtension/v1" xmlns:gpxtpx="http://www.garmin.com/xmlschemas/TrackPointExtension/v1" creator="Alpha 50 EU" version="1.1" xmlns:xsi="http://www.w3.org/2001/XMLSchema-instance" xsi:schemaLocation="http://www.topografix.com/GPX/1/1 http://www.topografix.com/GPX/1/1/gpx.xsd http://www.garmin.com/xmlschemas/GpxExtensions/v3 http://www8.garmin.com/xmlschemas/GpxExtensionsv3.xsd http://www.garmin.com/xmlschemas/WaypointExtension/v1 http://www8.garmin.com/xmlschemas/WaypointExtensionv1.xsd http://www.garmin.com/xmlschemas/TrackPointExtension/v1 http://www.garmin.com/xmlschemas/TrackPointExtensionv1.xsd"><metadata><link href="http://www.garmin.com"><text>Garmin International</text></link><time>2026-09-01T17:02:54Z</time></metadata><trk><name>2026-09-01 20:02:52</name><extensions><gpxx:TrackExtension><gpxx:DisplayColor>Red</gpxx:DisplayColor></gpxx:TrackExtension></extensions><trkseg><trkpt lat="59.2489653267" lon="30.6912683509"><ele>78.48</ele><time>2026-09-01T11:28:22Z</time></trkpt><trkpt lat="59.2489698529" lon="30.6912755594"><ele>78.48</ele><time>2026-09-01T11:28:45Z</time></trkpt><trkpt lat="59.2489857785" lon="30.6912391819"><ele>78.48</ele><time>2026-09-01T11:28:58Z</time></trkpt><trkpt lat="59.2489892989" lon="30.6912655849"><ele>78.00</ele><time>2026-09-01T11:29:23Z</time></trkpt><trkpt lat="59.2489944119" lon="30.6912487373"><ele>78.00</ele><time>2026-09-01T11:29:53Z</time></trkpt><trkpt lat="59.2489583697" lon="30.6912784092"><ele>78.00</ele><time>2026-09-01T11:30:26Z</time></trkpt><trkpt lat="59.2489799112" lon="30.6912587117"><ele>77.52</ele><time>2026-09-01T11:30:46Z</time></trkpt><trkpt lat="59.2489608843" lon="30.6912979390"><ele>77.52</ele><time>2026-09-01T11:31:08Z</time></trkpt><trkpt lat="59.2489623092" lon="30.6912867073"><ele>77.04</ele><time>2026-09-01T11:31:41Z</time></trkpt><trkpt lat="59.2489468027" lon="30.6912676804"><ele>77.04</ele><time>2026-09-01T11:31:58Z</time></trkpt><trkpt lat="59.2489395943" lon="30.6912950054"><ele>76.56</ele><time>2026-09-01T11:32:28Z</time></trkpt><trkpt lat="59.2489493173" lon="30.6912934128"><ele>76.56</ele><time>2026-09-01T11:32:30Z</time></trkpt><trkpt lat="59.2490633111" lon="30.6912900601"><ele>76.56</ele><time>2026-09-01T11:32:50Z</time></trkpt><trkpt lat="59.2491134349" lon="30.6913602166"><ele>76.56</ele><time>2026-09-01T11:33:02Z</time></trkpt><trkpt lat="59.2490074877" lon="30.6913652457"><ele>77.04</ele><time>2026-09-01T11:33:26Z</time></trkpt><trkpt lat="59.2490586173" lon="30.6913093384"><ele>78.00</ele><time>2026-09-01T11:33:52Z</time></trkpt><trkpt lat="59.2491317075" lon="30.6913543493"><ele>77.52</ele><time>2026-09-01T11:34:25Z</time></trkpt><trkpt lat="59.2491011135" lon="30.6912739668"><ele>77.52</ele><time>2026-09-01T11:34:44Z</time></trkpt><trkpt lat="59.2490599584" lon="30.6913242582"><ele>77.52</ele><time>2026-09-01T11:35:05Z</time></trkpt><trkpt lat="59.2491472978" lon="30.6912812591"><ele>77.52</ele><time>2026-09-01T11:35:34Z</time></trkpt><trkpt lat="59.2492500599" lon="30.6912073307"><ele>77.52</ele><time>2026-09-01T11:35:50Z</time></trkpt><trkpt lat="59.2492690030" lon="30.6911475677"><ele>77.52</ele><time>2026-09-01T11:35:54Z</time></trkpt><trkpt lat="59.2493669037" lon="30.6910356693"><ele>77.04</ele><time>2026-09-01T11:36:09Z</time></trkpt><trkpt lat="59.2494605295" lon="30.6909360923"><ele>77.04</ele><time>2026-09-01T11:36:22Z</time></trkpt><trkpt lat="59.2495113239" lon="30.6908657681"><ele>77.04</ele><time>2026-09-01T11:36:28Z</time></trkpt><trkpt lat="59.2496513855" lon="30.6907920912"><ele>77.04</ele><time>2026-09-01T11:36:43Z</time></trkpt><trkpt lat="59.2497393955" lon="30.6906644348"><ele>77.04</ele><time>2026-09-01T11:36:55Z</time></trkpt><trkpt lat="59.2497481126" lon="30.6906706374"><ele>77.04</ele><time>2026-09-01T11:36:56Z</time></trkpt><trkpt lat="59.2498685606" lon="30.6905351859"><ele>77.04</ele><time>2026-09-01T11:37:09Z</time></trkpt><trkpt lat="59.2499580793" lon="30.6904693879"><ele>77.04</ele><time>2026-09-01T11:37:19Z</time></trkpt><trkpt lat="59.2500522081" lon="30.6905129738"><ele>77.04</ele><time>2026-09-01T11:37:30Z</time></trkpt><trkpt lat="59.2500589974" lon="30.6905218586"><ele>77.04</ele><time>2026-09-01T11:37:31Z</time></trkpt><trkpt lat="59.2500970513" lon="30.6905231997"><ele>77.04</ele><time>2026-09-01T11:37:34Z</time></trkpt><trkpt lat="59.2501589097" lon="30.6903605908"><ele>76.56</ele><time>2026-09-01T11:37:49Z</time></trkpt><trkpt lat="59.2502820399" lon="30.6902968884"><ele>76.56</ele><time>2026-09-01T11:38:06Z</time></trkpt><trkpt lat="59.2504092772" lon="30.6901316810"><ele>76.56</ele><time>2026-09-01T11:38:22Z</time></trkpt><trkpt lat="59.2504491750" lon="30.6901051104"><ele>76.56</ele><time>2026-09-01T11:38:34Z</time></trkpt><trkpt lat="59.2505425494" lon="30.6900296733"><ele>76.56</ele><time>2026-09-01T11:38:46Z</time></trkpt><trkpt lat="59.2506314814" lon="30.6900416594"><ele>76.08</ele><time>2026-09-01T11:38:58Z</time></trkpt><trkpt lat="59.2507158034" lon="30.6899012625"><ele>76.08</ele><time>2026-09-01T11:39:12Z</time></trkpt><trkpt lat="59.2508028075" lon="30.6898206286"><ele>76.08</ele><time>2026-09-01T11:39:23Z</time></trkpt><trkpt lat="59.2509123590" lon="30.6897073053"><ele>76.08</ele><time>2026-09-01T11:39:37Z</time></trkpt><trkpt lat="59.2509855330" lon="30.6896778010"><ele>76.08</ele><time>2026-09-01T11:39:50Z</time></trkpt><trkpt lat="59.2510856967" lon="30.6895166170"><ele>76.08</ele><time>2026-09-01T11:40:04Z</time></trkpt><trkpt lat="59.2511358205" lon="30.6895446964"><ele>75.60</ele><time>2026-09-01T11:40:16Z</time></trkpt><trkpt lat="59.2511906382" lon="30.6894287746"><ele>75.60</ele><time>2026-09-01T11:40:29Z</time></trkpt><trkpt lat="59.2512097489" lon="30.6893846858"><ele>75.60</ele><time>2026-09-01T11:40:45Z</time></trkpt><trkpt lat="59.2512289435" lon="30.6893804111"><ele>75.12</ele><time>2026-09-01T11:41:31Z</time></trkpt><trkpt lat="59.2512463778" lon="30.6893471349"><ele>75.12</ele><time>2026-09-01T11:41:57Z</time></trkpt><trkpt lat="59.2512607947" lon="30.6893874519"><ele>75.12</ele><time>2026-09-01T11:42:26Z</time></trkpt><trkpt lat="59.2513325438" lon="30.6894519087"><ele>74.64</ele><time>2026-09-01T11:42:45Z</time></trkpt><trkpt lat="59.2513011955" lon="30.6895210594"><ele>74.64</ele><time>2026-09-01T11:43:09Z</time></trkpt><trkpt lat="59.2513519898" lon="30.6894424371"><ele>74.64</ele><time>2026-09-01T11:43:24Z</time></trkpt><trkpt lat="59.2513673287" lon="30.6893758848"><ele>73.20</ele><time>2026-09-01T11:43:48Z</time></trkpt><trkpt lat="59.2513762135" lon="30.6893783994"><ele>73.20</ele><time>2026-09-01T11:44:14Z</time></trkpt><trkpt lat="59.2514101602" lon="30.6892881263"><ele>73.20</ele><time>2026-09-01T11:44:33Z</time></trkpt><trkpt lat="59.2514265049" lon="30.6893001124"><ele>73.20</ele><time>2026-09-01T11:44:36Z</time></trkpt><trkpt lat="59.2514591105" lon="30.6892925687"><ele>73.20</ele><time>2026-09-01T11:44:41Z</time></trkpt><trkpt lat="59.2514684983" lon="30.6892505754"><ele>73.20</ele><time>2026-09-01T11:44:44Z</time></trkpt><trkpt lat="59.2515654769" lon="30.6891577877"><ele>73.20</ele><time>2026-09-01T11:44:57Z</time></trkpt><trkpt lat="59.2515724339" lon="30.6891617272"><ele>73.20</ele><time>2026-09-01T11:44:58Z</time></trkpt><trkpt lat="59.2516461108" lon="30.6890784111"><ele>72.72</ele><time>2026-09-01T11:45:09Z</time></trkpt><trkpt lat="59.2517760303" lon="30.6889699493"><ele>72.72</ele><time>2026-09-01T11:45:24Z</time></trkpt><trkpt lat="59.2518353742" lon="30.6888338272"><ele>72.72</ele><time>2026-09-01T11:45:36Z</time></trkpt><trkpt lat="59.2518476956" lon="30.6888541952"><ele>72.72</ele><time>2026-09-01T11:45:38Z</time></trkpt><trkpt lat="59.2519309279" lon="30.6888198294"><ele>72.72</ele><time>2026-09-01T11:45:50Z</time></trkpt><trkpt lat="59.2519948818" lon="30.6887110323"><ele>72.72</ele><time>2026-09-01T11:46:02Z</time></trkpt><trkpt lat="59.2520430777" lon="30.6886935979"><ele>72.72</ele><time>2026-09-01T11:46:13Z</time></trkpt><trkpt lat="59.2521010805" lon="30.6886158977"><ele>72.24</ele><time>2026-09-01T11:46:28Z</time></trkpt><trkpt lat="59.2521136533" lon="30.6886720564"><ele>72.24</ele><time>2026-09-01T11:46:34Z</time></trkpt><trkpt lat="59.2521575745" lon="30.6886992138"><ele>72.24</ele><time>2026-09-01T11:46:44Z</time></trkpt><trkpt lat="59.2521776911" lon="30.6886827014"><ele>72.24</ele><time>2026-09-01T11:46:50Z</time></trkpt><trkpt lat="59.2522070277" lon="30.6887147203"><ele>72.24</ele><time>2026-09-01T11:46:59Z</time></trkpt><trkpt lat="59.2522931099" lon="30.6886688713"><ele>72.24</ele><time>2026-09-01T11:47:14Z</time></trkpt><trkpt lat="59.2523610033" lon="30.6885120459"><ele>72.24</ele><time>2026-09-01T11:47:28Z</time></trkpt><trkpt lat="59.2524210177" lon="30.6884194259"><ele>71.76</ele><time>2026-09-01T11:47:42Z</time></trkpt><trkpt lat="59.2525215168" lon="30.6883803662"><ele>71.76</ele><time>2026-09-01T11:47:57Z</time></trkpt><trkpt lat="59.2525330838" lon="30.6883881614"><ele>71.76</ele><time>2026-09-01T11:47:59Z</time></trkpt><trkpt lat="59.2526153103" lon="30.6883744989"><ele>71.76</ele><time>2026-09-01T11:48:12Z</time></trkpt><trkpt lat="59.2526476644" lon="30.6881649513"><ele>71.76</ele><time>2026-09-01T11:48:28Z</time></trkpt><trkpt lat="59.2527009733" lon="30.6880275719"><ele>71.76</ele><time>2026-09-01T11:48:40Z</time></trkpt><trkpt lat="59.2527425475" lon="30.6879954692"><ele>71.76</ele><time>2026-09-01T11:48:46Z</time></trkpt><trkpt lat="59.2528480757" lon="30.6879555713"><ele>71.76</ele><time>2026-09-01T11:48:59Z</time></trkpt><trkpt lat="59.2529020552" lon="30.6878809724"><ele>71.27</ele><time>2026-09-01T11:49:11Z</time></trkpt><trkpt lat="59.2529448029" lon="30.6878204551"><ele>71.27</ele><time>2026-09-01T11:49:23Z</time></trkpt><trkpt lat="59.2530194856" lon="30.6877803896"><ele>71.27</ele><time>2026-09-01T11:49:39Z</time></trkpt><trkpt lat="59.2530971020" lon="30.6877409108"><ele>71.27</ele><time>2026-09-01T11:49:59Z</time></trkpt><trkpt lat="59.2531848606" lon="30.6876488775"><ele>71.27</ele><time>2026-09-01T11:50:13Z</time></trkpt><trkpt lat="59.2532442883" lon="30.6876067165"><ele>71.27</ele><time>2026-09-01T11:50:27Z</time></trkpt><trkpt lat="59.2533177137" lon="30.6875624601"><ele>71.27</ele><time>2026-09-01T11:50:39Z</time></trkpt><trkpt lat="59.2534016166" lon="30.6874866877"><ele>70.79</ele><time>2026-09-01T11:50:53Z</time></trkpt><trkpt lat="59.2534408439" lon="30.6874006055"><ele>70.79</ele><time>2026-09-01T11:51:06Z</time></trkpt><trkpt lat="59.2535289377" lon="30.6873695087"><ele>70.79</ele><time>2026-09-01T11:51:21Z</time></trkpt><trkpt lat="59.2535940651" lon="30.6872111745"><ele>70.79</ele><time>2026-09-01T11:51:34Z</time></trkpt><trkpt lat="59.2535901256" lon="30.6871650741"><ele>70.79</ele><time>2026-09-01T11:51:59Z</time></trkpt><trkpt lat="59.2536220606" lon="30.6872426067"><ele>70.79</ele><time>2026-09-01T11:52:26Z</time></trkpt><trkpt lat="59.2535870243" lon="30.6872637291"><ele>70.31</ele><time>2026-09-01T11:52:56Z</time></trkpt><trkpt lat="59.2535696737" lon="30.6873042975"><ele>70.31</ele><time>2026-09-01T11:53:35Z</time></trkpt><trkpt lat="59.2535803188" lon="30.6871872023"><ele>70.31</ele><time>2026-09-01T11:53:58Z</time></trkpt><trkpt lat="59.2535847612" lon="30.6871520821"><ele>69.83</ele><time>2026-09-01T11:54:22Z</time></trkpt><trkpt lat="59.2536310293" lon="30.6871307082"><ele>69.83</ele><time>2026-09-01T11:54:42Z</time></trkpt><trkpt lat="59.2536165286" lon="30.6870512478"><ele>69.83</ele><time>2026-09-01T11:54:59Z</time></trkpt><trkpt lat="59.2536824942" lon="30.6870366633"><ele>69.83</ele><time>2026-09-01T11:55:17Z</time></trkpt><trkpt lat="59.2537487950" lon="30.6869471446"><ele>69.83</ele><time>2026-09-01T11:55:39Z</time></trkpt><trkpt lat="59.2537726834" lon="30.6869468093"><ele>69.83</ele><time>2026-09-01T11:56:04Z</time></trkpt><trkpt lat="59.2537878547" lon="30.6869510002"><ele>70.79</ele><time>2026-09-01T11:56:07Z</time></trkpt><trkpt lat="59.2538335361" lon="30.6868660077"><ele>70.79</ele><time>2026-09-01T11:56:20Z</time></trkpt><trkpt lat="59.2538424209" lon="30.6868591346"><ele>70.79</ele><time>2026-09-01T11:56:21Z</time></trkpt><trkpt lat="59.2539202888" lon="30.6867662631"><ele>70.79</ele><time>2026-09-01T11:56:40Z</time></trkpt><trkpt lat="59.2539629526" lon="30.6867684424"><ele>70.79</ele><time>2026-09-01T11:57:10Z</time></trkpt><trkpt lat="59.2540135793" lon="30.6867748126"><ele>70.79</ele><time>2026-09-01T11:57:28Z</time></trkpt><trkpt lat="59.2540735938" lon="30.6866583880"><ele>70.79</ele><time>2026-09-01T11:57:44Z</time></trkpt><trkpt lat="59.2541342787" lon="30.6866612379"><ele>70.79</ele><time>2026-09-01T11:58:02Z</time></trkpt><trkpt lat="59.2542191036" lon="30.6865065079"><ele>70.79</ele><time>2026-09-01T11:58:18Z</time></trkpt><trkpt lat="59.2542859912" lon="30.6864428055"><ele>70.79</ele><time>2026-09-01T11:58:31Z</time></trkpt><trkpt lat="59.2543349415" lon="30.6864736509"><ele>70.31</ele><time>2026-09-01T11:58:46Z</time></trkpt><trkpt lat="59.2543411441" lon="30.6864731479"><ele>70.31</ele><time>2026-09-01T11:58:48Z</time></trkpt><trkpt lat="59.2544092890" lon="30.6865484174"><ele>70.31</ele><time>2026-09-01T11:59:04Z</time></trkpt><trkpt lat="59.2544755898" lon="30.6865059212"><ele>70.31</ele><time>2026-09-01T11:59:15Z</time></trkpt><trkpt lat="59.2545527034" lon="30.6864412129"><ele>70.31</ele><time>2026-09-01T11:59:29Z</time></trkpt><trkpt lat="59.2546312418" lon="30.6864391174"><ele>70.31</ele><time>2026-09-01T11:59:43Z</time></trkpt><trkpt lat="59.2546815332" lon="30.6863026600"><ele>70.31</ele><time>2026-09-01T11:59:59Z</time></trkpt><trkpt lat="59.2547080200" lon="30.6862465851"><ele>69.83</ele><time>2026-09-01T12:00:11Z</time></trkpt><trkpt lat="59.2547521088" lon="30.6861725729"><ele>69.83</ele><time>2026-09-01T12:00:35Z</time></trkpt><trkpt lat="59.2547856364" lon="30.6861039251"><ele>69.83</ele><time>2026-09-01T12:00:42Z</time></trkpt><trkpt lat="59.2549277935" lon="30.6859901827"><ele>69.83</ele><time>2026-09-01T12:00:59Z</time></trkpt><trkpt lat="59.2551053222" lon="30.6858171802"><ele>69.83</ele><time>2026-09-01T12:01:17Z</time></trkpt><trkpt lat="59.2552262731" lon="30.6857100595"><ele>69.83</ele><time>2026-09-01T12:01:31Z</time></trkpt><trkpt lat="59.2552631535" lon="30.6857253145"><ele>69.83</ele><time>2026-09-01T12:01:46Z</time></trkpt><trkpt lat="59.2552525084" lon="30.6856682338"><ele>69.35</ele><time>2026-09-01T12:02:16Z</time></trkpt><trkpt lat="59.2552296259" lon="30.6856808905"><ele>69.35</ele><time>2026-09-01T12:02:28Z</time></trkpt><trkpt lat="59.2552543525" lon="30.6856508832"><ele>69.35</ele><time>2026-09-01T12:02:45Z</time></trkpt><trkpt lat="59.2552666739" lon="30.6856688205"><ele>69.35</ele><time>2026-09-01T12:03:00Z</time></trkpt><trkpt lat="59.2552359123" lon="30.6856726762"><ele>69.35</ele><time>2026-09-01T12:03:15Z</time></trkpt><trkpt lat="59.2551448848" lon="30.6855295971"><ele>68.87</ele><time>2026-09-01T12:03:29Z</time></trkpt><trkpt lat="59.2550762370" lon="30.6854496337"><ele>68.87</ele><time>2026-09-01T12:03:39Z</time></trkpt><trkpt lat="59.2550866306" lon="30.6854308583"><ele>68.87</ele><time>2026-09-01T12:03:42Z</time></trkpt><trkpt lat="59.2551139556" lon="30.6853114162"><ele>68.87</ele><time>2026-09-01T12:03:53Z</time></trkpt><trkpt lat="59.2551265284" lon="30.6852401700"><ele>68.87</ele><time>2026-09-01T12:04:00Z</time></trkpt><trkpt lat="59.2551458068" lon="30.6851762161"><ele>68.87</ele><time>2026-09-01T12:04:20Z</time></trkpt><trkpt lat="59.2551484890" lon="30.6851607934"><ele>68.87</ele><time>2026-09-01T12:04:23Z</time></trkpt><trkpt lat="59.2552090902" lon="30.6850152835"><ele>68.87</ele><time>2026-09-01T12:04:37Z</time></trkpt><trkpt lat="59.2552188132" lon="30.6847955100"><ele>68.87</ele><time>2026-09-01T12:04:56Z</time></trkpt><trkpt lat="59.2552323919" lon="30.6847618148"><ele>68.87</ele><time>2026-09-01T12:05:12Z</time></trkpt><trkpt lat="59.2552566994" lon="30.6847026385"><ele>68.87</ele><time>2026-09-01T12:05:20Z</time></trkpt><trkpt lat="59.2552513350" lon="30.6844380219"><ele>68.39</ele><time>2026-09-01T12:05:36Z</time></trkpt><trkpt lat="59.2553100083" lon="30.6842190027"><ele>68.39</ele><time>2026-09-01T12:05:51Z</time></trkpt><trkpt lat="59.2553587072" lon="30.6842141412"><ele>68.39</ele><time>2026-09-01T12:06:06Z</time></trkpt><trkpt lat="59.2554130219" lon="30.6841885764"><ele>68.39</ele><time>2026-09-01T12:06:13Z</time></trkpt><trkpt lat="59.2554528359" lon="30.6838688906"><ele>68.39</ele><time>2026-09-01T12:06:30Z</time></trkpt><trkpt lat="59.2554699350" lon="30.6837932859"><ele>68.39</ele><time>2026-09-01T12:06:34Z</time></trkpt><trkpt lat="59.2554838490" lon="30.6837697327"><ele>68.39</ele><time>2026-09-01T12:06:36Z</time></trkpt><trkpt lat="59.2554887943" lon="30.6835424993"><ele>68.39</ele><time>2026-09-01T12:06:50Z</time></trkpt><trkpt lat="59.2555277701" lon="30.6832805648"><ele>68.39</ele><time>2026-09-01T12:07:06Z</time></trkpt><trkpt lat="59.2555652373" lon="30.6830840930"><ele>68.39</ele><time>2026-09-01T12:07:20Z</time></trkpt><trkpt lat="59.2555710208" lon="30.6830271799"><ele>67.43</ele><time>2026-09-01T12:07:23Z</time></trkpt><trkpt lat="59.2555679195" lon="30.6828334741"><ele>67.43</ele><time>2026-09-01T12:07:39Z</time></trkpt><trkpt lat="59.2556199711" lon="30.6825870462"><ele>67.43</ele><time>2026-09-01T12:07:57Z</time></trkpt><trkpt lat="59.2556303646" lon="30.6823230162"><ele>66.95</ele><time>2026-09-01T12:08:15Z</time></trkpt><trkpt lat="59.2557013594" lon="30.6819458306"><ele>66.95</ele><time>2026-09-01T12:08:35Z</time></trkpt><trkpt lat="59.2557406705" lon="30.6816826388"><ele>66.95</ele><time>2026-09-01T12:08:50Z</time></trkpt><trkpt lat="59.2558026128" lon="30.6812708359"><ele>66.95</ele><time>2026-09-01T12:09:13Z</time></trkpt><trkpt lat="59.2558113299" lon="30.6812474504"><ele>66.95</ele><time>2026-09-01T12:09:31Z</time></trkpt><trkpt lat="59.2558455281" lon="30.6812158506"><ele>66.95</ele><time>2026-09-01T12:09:53Z</time></trkpt><trkpt lat="59.2557870224" lon="30.6811787188"><ele>66.47</ele><time>2026-09-01T12:10:21Z</time></trkpt><trkpt lat="59.2558593582" lon="30.6807721965"><ele>67.91</ele><time>2026-09-01T12:10:46Z</time></trkpt><trkpt lat="59.2559354659" lon="30.6803334877"><ele>67.91</ele><time>2026-09-01T12:11:09Z</time></trkpt><trkpt lat="59.2559913732" lon="30.6799439806"><ele>67.91</ele><time>2026-09-01T12:11:32Z</time></trkpt><trkpt lat="59.2560549080" lon="30.6795305852"><ele>67.91</ele><time>2026-09-01T12:11:54Z</time></trkpt><trkpt lat="59.2561140843" lon="30.6790618692"><ele>68.39</ele><time>2026-09-01T12:12:18Z</time></trkpt><trkpt lat="59.2561555747" lon="30.6787668262"><ele>68.39</ele><time>2026-09-01T12:12:35Z</time></trkpt><trkpt lat="59.2561839055" lon="30.6786243338"><ele>68.39</ele><time>2026-09-01T12:12:43Z</time></trkpt><trkpt lat="59.2562397290" lon="30.6784474757"><ele>68.39</ele><time>2026-09-01T12:12:53Z</time></trkpt><trkpt lat="59.2562896851" lon="30.6781649217"><ele>68.39</ele><time>2026-09-01T12:13:09Z</time></trkpt><trkpt lat="59.2563831434" lon="30.6779154763"><ele>68.87</ele><time>2026-09-01T12:13:27Z</time></trkpt><trkpt lat="59.2564346921" lon="30.6778757460"><ele>68.87</ele><time>2026-09-01T12:13:41Z</time></trkpt><trkpt lat="59.2564880848" lon="30.6778698787"><ele>69.35</ele><time>2026-09-01T12:13:55Z</time></trkpt><trkpt lat="59.2565051839" lon="30.6778752431"><ele>69.35</ele><time>2026-09-01T12:14:02Z</time></trkpt><trkpt lat="59.2565694731" lon="30.6779396161"><ele>69.35</ele><time>2026-09-01T12:14:19Z</time></trkpt><trkpt lat="59.2566125561" lon="30.6780424621"><ele>68.87</ele><time>2026-09-01T12:14:43Z</time></trkpt><trkpt lat="59.2566210218" lon="30.6781173963"><ele>68.87</ele><time>2026-09-01T12:15:02Z</time></trkpt><trkpt lat="59.2566475086" lon="30.6782449689"><ele>68.87</ele><time>2026-09-01T12:15:18Z</time></trkpt><trkpt lat="59.2567212693" lon="30.6783080846"><ele>68.87</ele><time>2026-09-01T12:15:33Z</time></trkpt><trkpt lat="59.2568041664" lon="30.6782282051"><ele>68.87</ele><time>2026-09-01T12:15:47Z</time></trkpt><trkpt lat="59.2568172421" lon="30.6781873852"><ele>68.87</ele><time>2026-09-01T12:16:05Z</time></trkpt><trkpt lat="59.2568273004" lon="30.6782102678"><ele>68.87</ele><time>2026-09-01T12:16:11Z</time></trkpt><trkpt lat="59.2568309885" lon="30.6782242656"><ele>68.87</ele><time>2026-09-01T12:16:35Z</time></trkpt><trkpt lat="59.2568599898" lon="30.6781524327"><ele>68.87</ele><time>2026-09-01T12:16:55Z</time></trkpt><trkpt lat="59.2567767575" lon="30.6780537777"><ele>68.87</ele><time>2026-09-01T12:17:25Z</time></trkpt><trkpt lat="59.2567480914" lon="30.6782060768"><ele>68.87</ele><time>2026-09-01T12:17:39Z</time></trkpt><trkpt lat="59.2567135580" lon="30.6783489045"><ele>68.87</ele><time>2026-09-01T12:18:13Z</time></trkpt><trkpt lat="59.2567713931" lon="30.6785369106"><ele>68.87</ele><time>2026-09-01T12:18:30Z</time></trkpt><trkpt lat="59.2567557190" lon="30.6786915567"><ele>69.35</ele><time>2026-09-01T12:18:40Z</time></trkpt><trkpt lat="59.2567431461" lon="30.6788886152"><ele>69.35</ele><time>2026-09-01T12:18:54Z</time></trkpt><trkpt lat="59.2567905877" lon="30.6789527368"><ele>69.35</ele><time>2026-09-01T12:19:02Z</time></trkpt><trkpt lat="59.2567635141" lon="30.6790617853"><ele>69.35</ele><time>2026-09-01T12:19:16Z</time></trkpt><trkpt lat="59.2568350956" lon="30.6792221311"><ele>69.35</ele><time>2026-09-01T12:19:30Z</time></trkpt><trkpt lat="59.2567642685" lon="30.6793168467"><ele>69.35</ele><time>2026-09-01T12:19:40Z</time></trkpt><trkpt lat="59.2566796951" lon="30.6795774400"><ele>69.35</ele><time>2026-09-01T12:19:55Z</time></trkpt><trkpt lat="59.2566617578" lon="30.6798094511"><ele>68.39</ele><time>2026-09-01T12:20:10Z</time></trkpt><trkpt lat="59.2566454131" lon="30.6799433939"><ele>68.39</ele><time>2026-09-01T12:20:17Z</time></trkpt><trkpt lat="59.2565508652" lon="30.6800014805"><ele>68.39</ele><time>2026-09-01T12:20:31Z</time></trkpt><trkpt lat="59.2565418966" lon="30.6801051646"><ele>68.39</ele><time>2026-09-01T12:20:47Z</time></trkpt><trkpt lat="59.2565009091" lon="30.6802701205"><ele>67.91</ele><time>2026-09-01T12:21:02Z</time></trkpt><trkpt lat="59.2564560659" lon="30.6804567855"><ele>67.91</ele><time>2026-09-01T12:21:19Z</time></trkpt><trkpt lat="59.2565281503" lon="30.6806317158"><ele>67.91</ele><time>2026-09-01T12:21:34Z</time></trkpt><trkpt lat="59.2565207742" lon="30.6807352323"><ele>67.91</ele><time>2026-09-01T12:21:48Z</time></trkpt><trkpt lat="59.2565500271" lon="30.6808702648"><ele>67.43</ele><time>2026-09-01T12:22:01Z</time></trkpt><trkpt lat="59.2565506138" lon="30.6808912195"><ele>67.43</ele><time>2026-09-01T12:22:04Z</time></trkpt><trkpt lat="59.2565449979" lon="30.6812414993"><ele>67.43</ele><time>2026-09-01T12:22:22Z</time></trkpt><trkpt lat="59.2565092910" lon="30.6813838240"><ele>67.43</ele><time>2026-09-01T12:22:35Z</time></trkpt><trkpt lat="59.2564584967" lon="30.6814972311"><ele>67.43</ele><time>2026-09-01T12:22:52Z</time></trkpt><trkpt lat="59.2564587481" lon="30.6815959699"><ele>67.43</ele><time>2026-09-01T12:23:09Z</time></trkpt><trkpt lat="59.2564926110" lon="30.6817273144"><ele>67.43</ele><time>2026-09-01T12:23:22Z</time></trkpt><trkpt lat="59.2564469296" lon="30.6817688048"><ele>67.43</ele><time>2026-09-01T12:23:31Z</time></trkpt><trkpt lat="59.2564440798" lon="30.6818330102"><ele>67.43</ele><time>2026-09-01T12:23:35Z</time></trkpt><trkpt lat="59.2564335186" lon="30.6820083596"><ele>67.43</ele><time>2026-09-01T12:23:47Z</time></trkpt><trkpt lat="59.2564085405" lon="30.6821463257"><ele>67.43</ele><time>2026-09-01T12:23:59Z</time></trkpt><trkpt lat="59.2563748453" lon="30.6823841203"><ele>67.43</ele><time>2026-09-01T12:24:14Z</time></trkpt><trkpt lat="59.2563383002" lon="30.6825664267"><ele>67.43</ele><time>2026-09-01T12:24:29Z</time></trkpt><trkpt lat="59.2563060299" lon="30.6827513315"><ele>67.43</ele><time>2026-09-01T12:24:42Z</time></trkpt><trkpt lat="59.2563237995" lon="30.6828846876"><ele>67.43</ele><time>2026-09-01T12:24:57Z</time></trkpt><trkpt lat="59.2563331872" lon="30.6829457078"><ele>67.43</ele><time>2026-09-01T12:25:18Z</time></trkpt><trkpt lat="59.2563238833" lon="30.6829345599"><ele>67.43</ele><time>2026-09-01T12:25:20Z</time></trkpt><trkpt lat="59.2562539782" lon="30.6829762179"><ele>67.43</ele><time>2026-09-01T12:25:35Z</time></trkpt><trkpt lat="59.2562291678" lon="30.6831232365"><ele>67.91</ele><time>2026-09-01T12:25:49Z</time></trkpt><trkpt lat="59.2562826443" lon="30.6832108274"><ele>67.91</ele><time>2026-09-01T12:26:08Z</time></trkpt><trkpt lat="59.2562873382" lon="30.6833967380"><ele>67.91</ele><time>2026-09-01T12:26:31Z</time></trkpt><trkpt lat="59.2563237995" lon="30.6833964866"><ele>67.91</ele><time>2026-09-01T12:26:36Z</time></trkpt><trkpt lat="59.2563827243" lon="30.6833521463"><ele>67.91</ele><time>2026-09-01T12:26:53Z</time></trkpt><trkpt lat="59.2564916890" lon="30.6833830755"><ele>67.91</ele><time>2026-09-01T12:27:23Z</time></trkpt><trkpt lat="59.2564278189" lon="30.6832596101"><ele>67.91</ele><time>2026-09-01T12:27:49Z</time></trkpt><trkpt lat="59.2563406471" lon="30.6834969018"><ele>67.91</ele><time>2026-09-01T12:28:04Z</time></trkpt><trkpt lat="59.2563278228" lon="30.6836923677"><ele>67.91</ele><time>2026-09-01T12:28:18Z</time></trkpt><trkpt lat="59.2562992405" lon="30.6837280747"><ele>67.91</ele><time>2026-09-01T12:28:21Z</time></trkpt><trkpt lat="59.2561773676" lon="30.6839644443"><ele>67.91</ele><time>2026-09-01T12:28:37Z</time></trkpt><trkpt lat="59.2561688181" lon="30.6839916017"><ele>67.91</ele><time>2026-09-01T12:28:39Z</time></trkpt><trkpt lat="59.2561699077" lon="30.6841967069"><ele>68.39</ele><time>2026-09-01T12:28:52Z</time></trkpt><trkpt lat="59.2561921198" lon="30.6844578870"><ele>68.39</ele><time>2026-09-01T12:29:03Z</time></trkpt><trkpt lat="59.2562240548" lon="30.6846779119"><ele>68.39</ele><time>2026-09-01T12:29:18Z</time></trkpt><trkpt lat="59.2562258150" lon="30.6846850365"><ele>68.39</ele><time>2026-09-01T12:29:19Z</time></trkpt><trkpt lat="59.2562881764" lon="30.6848649122"><ele>68.39</ele><time>2026-09-01T12:29:34Z</time></trkpt><trkpt lat="59.2562947981" lon="30.6848907284"><ele>68.39</ele><time>2026-09-01T12:29:37Z</time></trkpt><trkpt lat="59.2563173454" lon="30.6850146968"><ele>68.39</ele><time>2026-09-01T12:29:46Z</time></trkpt><trkpt lat="59.2563367914" lon="30.6852594484"><ele>68.39</ele><time>2026-09-01T12:30:02Z</time></trkpt><trkpt lat="59.2564039305" lon="30.6854350492"><ele>68.39</ele><time>2026-09-01T12:30:12Z</time></trkpt><trkpt lat="59.2564869113" lon="30.6855736859"><ele>68.39</ele><time>2026-09-01T12:30:26Z</time></trkpt><trkpt lat="59.2565109674" lon="30.6857510470"><ele>68.39</ele><time>2026-09-01T12:30:41Z</time></trkpt><trkpt lat="59.2565825488" lon="30.6859980617"><ele>68.39</ele><time>2026-09-01T12:30:54Z</time></trkpt><trkpt lat="59.2565990612" lon="30.6860295776"><ele>68.39</ele><time>2026-09-01T12:30:57Z</time></trkpt><trkpt lat="59.2566759232" lon="30.6862252112"><ele>68.39</ele><time>2026-09-01T12:31:07Z</time></trkpt><trkpt lat="59.2566909268" lon="30.6864138879"><ele>68.39</ele><time>2026-09-01T12:31:20Z</time></trkpt><trkpt lat="59.2567666993" lon="30.6865700427"><ele>68.39</ele><time>2026-09-01T12:31:32Z</time></trkpt><trkpt lat="59.2568538710" lon="30.6867220905"><ele>68.39</ele><time>2026-09-01T12:31:42Z</time></trkpt><trkpt lat="59.2569556274" lon="30.6869439594"><ele>68.87</ele><time>2026-09-01T12:31:57Z</time></trkpt><trkpt lat="59.2570594791" lon="30.6871821731"><ele>68.87</ele><time>2026-09-01T12:32:13Z</time></trkpt><trkpt lat="59.2571116984" lon="30.6874675769"><ele>68.87</ele><time>2026-09-01T12:32:25Z</time></trkpt><trkpt lat="59.2571283784" lon="30.6874717679"><ele>68.87</ele><time>2026-09-01T12:32:42Z</time></trkpt><trkpt lat="59.2570510134" lon="30.6874627993"><ele>68.87</ele><time>2026-09-01T12:33:07Z</time></trkpt><trkpt lat="59.2570926715" lon="30.6874011084"><ele>69.35</ele><time>2026-09-01T12:33:33Z</time></trkpt><trkpt lat="59.2571134586" lon="30.6875430979"><ele>69.35</ele><time>2026-09-01T12:33:59Z</time></trkpt><trkpt lat="59.2571248580" lon="30.6875394098"><ele>69.35</ele><time>2026-09-01T12:34:27Z</time></trkpt><trkpt lat="59.2570822779" lon="30.6875255797"><ele>69.35</ele><time>2026-09-01T12:34:49Z</time></trkpt><trkpt lat="59.2571264505" lon="30.6874634698"><ele>69.35</ele><time>2026-09-01T12:35:13Z</time></trkpt><trkpt lat="59.2572111916" lon="30.6874344684"><ele>69.35</ele><time>2026-09-01T12:35:27Z</time></trkpt><trkpt lat="59.2572085932" lon="30.6874258351"><ele>69.35</ele><time>2026-09-01T12:35:29Z</time></trkpt><trkpt lat="59.2572175618" lon="30.6873766333"><ele>69.35</ele><time>2026-09-01T12:35:32Z</time></trkpt><trkpt lat="59.2572526820" lon="30.6872546766"><ele>69.35</ele><time>2026-09-01T12:35:40Z</time></trkpt><trkpt lat="59.2571872193" lon="30.6871688459"><ele>69.35</ele><time>2026-09-01T12:35:53Z</time></trkpt><trkpt lat="59.2571331561" lon="30.6871598773"><ele>69.35</ele><time>2026-09-01T12:36:18Z</time></trkpt><trkpt lat="59.2570784222" lon="30.6871738750"><ele>69.35</ele><time>2026-09-01T12:36:41Z</time></trkpt><trkpt lat="59.2570853792" lon="30.6872005295"><ele>69.83</ele><time>2026-09-01T12:36:59Z</time></trkpt><trkpt lat="59.2571647558" lon="30.6872225739"><ele>69.83</ele><time>2026-09-01T12:37:48Z</time></trkpt><trkpt lat="59.2571519315" lon="30.6871323008"><ele>69.83</ele><time>2026-09-01T12:37:58Z</time></trkpt><trkpt lat="59.2571408674" lon="30.6869214121"><ele>69.83</ele><time>2026-09-01T12:38:15Z</time></trkpt><trkpt lat="59.2572167236" lon="30.6867265329"><ele>69.83</ele><time>2026-09-01T12:38:29Z</time></trkpt><trkpt lat="59.2572448868" lon="30.6865114532"><ele>70.31</ele><time>2026-09-01T12:38:46Z</time></trkpt><trkpt lat="59.2572781630" lon="30.6864189170"><ele>70.31</ele><time>2026-09-01T12:38:54Z</time></trkpt><trkpt lat="59.2573473975" lon="30.6863834616"><ele>70.31</ele><time>2026-09-01T12:39:09Z</time></trkpt><trkpt lat="59.2574043944" lon="30.6862432323"><ele>70.31</ele><time>2026-09-01T12:39:24Z</time></trkpt><trkpt lat="59.2574905604" lon="30.6862435676"><ele>70.31</ele><time>2026-09-01T12:39:38Z</time></trkpt><trkpt lat="59.2575166281" lon="30.6862430647"><ele>70.31</ele><time>2026-09-01T12:39:41Z</time></trkpt><trkpt lat="59.2576308735" lon="30.6863465812"><ele>70.31</ele><time>2026-09-01T12:39:58Z</time></trkpt><trkpt lat="59.2576702684" lon="30.6862643547"><ele>70.31</ele><time>2026-09-01T12:40:13Z</time></trkpt><trkpt lat="59.2577167880" lon="30.6861799490"><ele>69.83</ele><time>2026-09-01T12:40:30Z</time></trkpt><trkpt lat="59.2577527463" lon="30.6859983969"><ele>69.83</ele><time>2026-09-01T12:40:44Z</time></trkpt><trkpt lat="59.2577669956" lon="30.6858429126"><ele>69.83</ele><time>2026-09-01T12:40:59Z</time></trkpt><trkpt lat="59.2578422651" lon="30.6856290065"><ele>69.83</ele><time>2026-09-01T12:41:15Z</time></trkpt><trkpt lat="59.2578457855" lon="30.6855962332"><ele>69.83</ele><time>2026-09-01T12:41:17Z</time></trkpt><trkpt lat="59.2578737810" lon="30.6854863465"><ele>69.83</ele><time>2026-09-01T12:41:33Z</time></trkpt><trkpt lat="59.2578722723" lon="30.6852990948"><ele>69.83</ele><time>2026-09-01T12:41:47Z</time></trkpt><trkpt lat="59.2578918021" lon="30.6851906329"><ele>69.83</ele><time>2026-09-01T12:42:05Z</time></trkpt><trkpt lat="59.2580240685" lon="30.6851017848"><ele>69.83</ele><time>2026-09-01T12:42:20Z</time></trkpt><trkpt lat="59.2580916267" lon="30.6851291936"><ele>70.31</ele><time>2026-09-01T12:42:36Z</time></trkpt><trkpt lat="59.2581574246" lon="30.6850721966"><ele>69.83</ele><time>2026-09-01T12:43:00Z</time></trkpt><trkpt lat="59.2582106497" lon="30.6851325464"><ele>70.31</ele><time>2026-09-01T12:43:15Z</time></trkpt><trkpt lat="59.2582289223" lon="30.6851041317"><ele>70.31</ele><time>2026-09-01T12:43:33Z</time></trkpt><trkpt lat="59.2582483683" lon="30.6850532535"><ele>69.83</ele><time>2026-09-01T12:44:03Z</time></trkpt><trkpt lat="59.2582544032" lon="30.6850601267"><ele>69.83</ele><time>2026-09-01T12:44:16Z</time></trkpt><trkpt lat="59.2582774535" lon="30.6851367373"><ele>69.83</ele><time>2026-09-01T12:44:40Z</time></trkpt><trkpt lat="59.2583409045" lon="30.6851286069"><ele>69.83</ele><time>2026-09-01T12:44:58Z</time></trkpt><trkpt lat="59.2584216222" lon="30.6851227395"><ele>69.83</ele><time>2026-09-01T12:45:16Z</time></trkpt><trkpt lat="59.2585195228" lon="30.6850859430"><ele>69.83</ele><time>2026-09-01T12:45:31Z</time></trkpt><trkpt lat="59.2585432436" lon="30.6850721966"><ele>69.83</ele><time>2026-09-01T12:45:35Z</time></trkpt><trkpt lat="59.2586591654" lon="30.6850208994"><ele>69.83</ele><time>2026-09-01T12:45:49Z</time></trkpt><trkpt lat="59.2587418109" lon="30.6849592086"><ele>69.83</ele><time>2026-09-01T12:46:03Z</time></trkpt><trkpt lat="59.2587684654" lon="30.6849078275"><ele>69.83</ele><time>2026-09-01T12:46:11Z</time></trkpt><trkpt lat="59.2588320840" lon="30.6849700212"><ele>69.83</ele><time>2026-09-01T12:46:28Z</time></trkpt><trkpt lat="59.2589496821" lon="30.6848984398"><ele>69.83</ele><time>2026-09-01T12:46:44Z</time></trkpt><trkpt lat="59.2589758337" lon="30.6848571170"><ele>69.83</ele><time>2026-09-01T12:46:49Z</time></trkpt><trkpt lat="59.2590464931" lon="30.6847681012"><ele>69.83</ele><time>2026-09-01T12:47:05Z</time></trkpt><trkpt lat="59.2591187451" lon="30.6847074162"><ele>69.83</ele><time>2026-09-01T12:47:15Z</time></trkpt><trkpt lat="59.2592671886" lon="30.6847762316"><ele>69.83</ele><time>2026-09-01T12:47:31Z</time></trkpt><trkpt lat="59.2593432125" lon="30.6847073324"><ele>69.83</ele><time>2026-09-01T12:47:45Z</time></trkpt><trkpt lat="59.2594192363" lon="30.6846268661"><ele>69.83</ele><time>2026-09-01T12:47:58Z</time></trkpt><trkpt lat="59.2594695278" lon="30.6847660895"><ele>69.35</ele><time>2026-09-01T12:48:13Z</time></trkpt><trkpt lat="59.2594949249" lon="30.6847833563"><ele>69.35</ele><time>2026-09-01T12:48:26Z</time></trkpt><trkpt lat="59.2595335655" lon="30.6848297920"><ele>69.35</ele><time>2026-09-01T12:48:39Z</time></trkpt><trkpt lat="59.2596154567" lon="30.6847532652"><ele>69.35</ele><time>2026-09-01T12:48:57Z</time></trkpt><trkpt lat="59.2596256826" lon="30.6847728789"><ele>69.35</ele><time>2026-09-01T12:49:09Z</time></trkpt><trkpt lat="59.2596997786" lon="30.6847595517"><ele>69.35</ele><time>2026-09-01T12:49:23Z</time></trkpt><trkpt lat="59.2597696837" lon="30.6848253496"><ele>69.35</ele><time>2026-09-01T12:49:40Z</time></trkpt><trkpt lat="59.2598500662" lon="30.6849223282"><ele>69.35</ele><time>2026-09-01T12:49:54Z</time></trkpt><trkpt lat="59.2599211447" lon="30.6850440335"><ele>69.35</ele><time>2026-09-01T12:50:09Z</time></trkpt><trkpt lat="59.2599921394" lon="30.6850354001"><ele>69.35</ele><time>2026-09-01T12:50:26Z</time></trkpt><trkpt lat="59.2600647267" lon="30.6850440335"><ele>69.35</ele><time>2026-09-01T12:50:43Z</time></trkpt><trkpt lat="59.2600335460" lon="30.6850249227"><ele>68.87</ele><time>2026-09-01T12:51:10Z</time></trkpt><trkpt lat="59.2600022815" lon="30.6850846019"><ele>68.87</ele><time>2026-09-01T12:51:35Z</time></trkpt><trkpt lat="59.2599954922" lon="30.6851119269"><ele>68.87</ele><time>2026-09-01T12:52:06Z</time></trkpt><trkpt lat="59.2600143515" lon="30.6851320434"><ele>68.87</ele><time>2026-09-01T12:52:36Z</time></trkpt><trkpt lat="59.2600745335" lon="30.6853042077"><ele>68.87</ele><time>2026-09-01T12:52:51Z</time></trkpt><trkpt lat="59.2601637170" lon="30.6854059640"><ele>68.87</ele><time>2026-09-01T12:53:07Z</time></trkpt><trkpt lat="59.2601932213" lon="30.6855706684"><ele>68.87</ele><time>2026-09-01T12:53:23Z</time></trkpt><trkpt lat="59.2601865157" lon="30.6855966523"><ele>68.87</ele><time>2026-09-01T12:53:25Z</time></trkpt><trkpt lat="59.2602510564" lon="30.6857550703"><ele>68.87</ele><time>2026-09-01T12:53:42Z</time></trkpt><trkpt lat="59.2602963187" lon="30.6858241372"><ele>68.87</ele><time>2026-09-01T12:53:53Z</time></trkpt><trkpt lat="59.2603901122" lon="30.6860351935"><ele>68.87</ele><time>2026-09-01T12:54:09Z</time></trkpt><trkpt lat="59.2604760267" lon="30.6861756742"><ele>68.39</ele><time>2026-09-01T12:54:24Z</time></trkpt><trkpt lat="59.2605403997" lon="30.6862274744"><ele>68.39</ele><time>2026-09-01T12:54:39Z</time></trkpt><trkpt lat="59.2606268171" lon="30.6863307394"><ele>68.39</ele><time>2026-09-01T12:54:55Z</time></trkpt><trkpt lat="59.2606652062" lon="30.6863982137"><ele>68.39</ele><time>2026-09-01T12:55:11Z</time></trkpt><trkpt lat="59.2607041821" lon="30.6864491757"><ele>68.39</ele><time>2026-09-01T12:55:29Z</time></trkpt><trkpt lat="59.2607374582" lon="30.6864899956"><ele>68.39</ele><time>2026-09-01T12:55:47Z</time></trkpt><trkpt lat="59.2607803736" lon="30.6865196675"><ele>68.39</ele><time>2026-09-01T12:56:02Z</time></trkpt><trkpt lat="59.2607885879" lon="30.6865328271"><ele>68.39</ele><time>2026-09-01T12:56:04Z</time></trkpt><trkpt lat="59.2608553916" lon="30.6866238546"><ele>68.39</ele><time>2026-09-01T12:56:19Z</time></trkpt><trkpt lat="59.2608900089" lon="30.6867220066"><ele>68.39</ele><time>2026-09-01T12:56:35Z</time></trkpt><trkpt lat="59.2609444074" lon="30.6867918279"><ele>68.39</ele><time>2026-09-01T12:56:49Z</time></trkpt><trkpt lat="59.2609603330" lon="30.6869194005"><ele>68.39</ele><time>2026-09-01T12:57:03Z</time></trkpt><trkpt lat="59.2610226944" lon="30.6869915687"><ele>68.39</ele><time>2026-09-01T12:57:19Z</time></trkpt><trkpt lat="59.2610474210" lon="30.6870240904"><ele>69.35</ele><time>2026-09-01T12:57:40Z</time></trkpt><trkpt lat="59.2610703874" lon="30.6870457157"><ele>69.35</ele><time>2026-09-01T12:57:44Z</time></trkpt><trkpt lat="59.2611335870" lon="30.6871451251"><ele>69.35</ele><time>2026-09-01T12:57:54Z</time></trkpt><trkpt lat="59.2612189148" lon="30.6872510724"><ele>67.91</ele><time>2026-09-01T12:58:04Z</time></trkpt><trkpt lat="59.2612051684" lon="30.6872637291"><ele>67.91</ele><time>2026-09-01T12:58:08Z</time></trkpt><trkpt lat="59.2611640971" lon="30.6873255037"><ele>67.91</ele><time>2026-09-01T12:58:29Z</time></trkpt><trkpt lat="59.2611562181" lon="30.6873834226"><ele>67.91</ele><time>2026-09-01T12:58:51Z</time></trkpt><trkpt lat="59.2610759195" lon="30.6874841731"><ele>67.91</ele><time>2026-09-01T12:59:10Z</time></trkpt><trkpt lat="59.2610837147" lon="30.6876327004"><ele>67.91</ele><time>2026-09-01T12:59:27Z</time></trkpt><trkpt lat="59.2610974610" lon="30.6876190379"><ele>67.91</ele><time>2026-09-01T12:59:28Z</time></trkpt><trkpt lat="59.2611449864" lon="30.6876591872"><ele>67.91</ele><time>2026-09-01T12:59:37Z</time></trkpt><trkpt lat="59.2611034121" lon="30.6876930501"><ele>67.91</ele><time>2026-09-01T12:59:52Z</time></trkpt><trkpt lat="59.2611132190" lon="30.6876721792"><ele>67.91</ele><time>2026-09-01T13:00:17Z</time></trkpt><trkpt lat="59.2610723153" lon="30.6877267454"><ele>66.95</ele><time>2026-09-01T13:00:39Z</time></trkpt><trkpt lat="59.2611048371" lon="30.6876958162"><ele>66.47</ele><time>2026-09-01T13:00:59Z</time></trkpt><trkpt lat="59.2610957008" lon="30.6877461914"><ele>66.47</ele><time>2026-09-01T13:01:21Z</time></trkpt><trkpt lat="59.2611164041" lon="30.6876592711"><ele>66.47</ele><time>2026-09-01T13:01:38Z</time></trkpt><trkpt lat="59.2611669470" lon="30.6875841692"><ele>66.47</ele><time>2026-09-01T13:01:57Z</time></trkpt><trkpt lat="59.2610981315" lon="30.6875830796"><ele>66.47</ele><time>2026-09-01T13:02:29Z</time></trkpt><trkpt lat="59.2611270491" lon="30.6875940599"><ele>65.99</ele><time>2026-09-01T13:02:49Z</time></trkpt><trkpt lat="59.2611099500" lon="30.6875988375"><ele>65.99</ele><time>2026-09-01T13:03:11Z</time></trkpt><trkpt lat="59.2610811163" lon="30.6876846682"><ele>65.99</ele><time>2026-09-01T13:03:29Z</time></trkpt><trkpt lat="59.2610625923" lon="30.6877286732"><ele>65.99</ele><time>2026-09-01T13:03:47Z</time></trkpt><trkpt lat="59.2610138096" lon="30.6877207942"><ele>66.95</ele><time>2026-09-01T13:04:03Z</time></trkpt><trkpt lat="59.2610105406" lon="30.6876420043"><ele>66.95</ele><time>2026-09-01T13:04:36Z</time></trkpt><trkpt lat="59.2610716447" lon="30.6876440998"><ele>66.95</ele><time>2026-09-01T13:05:04Z</time></trkpt><trkpt lat="59.2610042542" lon="30.6877845805"><ele>66.95</ele><time>2026-09-01T13:05:24Z</time></trkpt><trkpt lat="59.2609413061" lon="30.6878238916"><ele>66.95</ele><time>2026-09-01T13:05:40Z</time></trkpt><trkpt lat="59.2609242909" lon="30.6879485305"><ele>66.95</ele><time>2026-09-01T13:05:53Z</time></trkpt><trkpt lat="59.2608572356" lon="30.6879093032"><ele>66.47</ele><time>2026-09-01T13:06:05Z</time></trkpt><trkpt lat="59.2607927788" lon="30.6879671384"><ele>66.47</ele><time>2026-09-01T13:06:18Z</time></trkpt><trkpt lat="59.2607724108" lon="30.6879956368"><ele>66.47</ele><time>2026-09-01T13:06:27Z</time></trkpt><trkpt lat="59.2606769409" lon="30.6879890990"><ele>66.47</ele><time>2026-09-01T13:06:42Z</time></trkpt><trkpt lat="59.2606569920" lon="30.6878810562"><ele>66.47</ele><time>2026-09-01T13:06:56Z</time></trkpt><trkpt lat="59.2606694810" lon="30.6878582574"><ele>66.47</ele><time>2026-09-01T13:07:15Z</time></trkpt><trkpt lat="59.2606693972" lon="30.6878438406"><ele>66.47</ele><time>2026-09-01T13:07:19Z</time></trkpt><trkpt lat="59.2605725862" lon="30.6878296752"><ele>66.47</ele><time>2026-09-01T13:07:38Z</time></trkpt><trkpt lat="59.2605377175" lon="30.6878558267"><ele>66.47</ele><time>2026-09-01T13:07:52Z</time></trkpt><trkpt lat="59.2605119850" lon="30.6879681442"><ele>66.47</ele><time>2026-09-01T13:08:08Z</time></trkpt><trkpt lat="59.2604709975" lon="30.6879730895"><ele>66.47</ele><time>2026-09-01T13:08:22Z</time></trkpt><trkpt lat="59.2604005057" lon="30.6879974809"><ele>66.47</ele><time>2026-09-01T13:08:40Z</time></trkpt><trkpt lat="59.2603832390" lon="30.6880714092"><ele>66.47</ele><time>2026-09-01T13:08:55Z</time></trkpt><trkpt lat="59.2603386473" lon="30.6880839821"><ele>66.47</ele><time>2026-09-01T13:09:10Z</time></trkpt><trkpt lat="59.2602663953" lon="30.6880293321"><ele>66.47</ele><time>2026-09-01T13:09:32Z</time></trkpt><trkpt lat="59.2602540739" lon="30.6879964750"><ele>66.47</ele><time>2026-09-01T13:09:49Z</time></trkpt><trkpt lat="59.2602655571" lon="30.6879839022"><ele>66.47</ele><time>2026-09-01T13:09:58Z</time></trkpt><trkpt lat="59.2602722626" lon="30.6879726704"><ele>66.47</ele><time>2026-09-01T13:10:21Z</time></trkpt><trkpt lat="59.2602654733" lon="30.6880302541"><ele>66.47</ele><time>2026-09-01T13:10:43Z</time></trkpt><trkpt lat="59.2602158524" lon="30.6879932899"><ele>66.47</ele><time>2026-09-01T13:11:00Z</time></trkpt><trkpt lat="59.2602312751" lon="30.6879932061"><ele>65.99</ele><time>2026-09-01T13:11:19Z</time></trkpt><trkpt lat="59.2601769604" lon="30.6879285816"><ele>65.99</ele><time>2026-09-01T13:11:38Z</time></trkpt><trkpt lat="59.2601267528" lon="30.6878100615"><ele>65.99</ele><time>2026-09-01T13:11:47Z</time></trkpt><trkpt lat="59.2600488849" lon="30.6878300104"><ele>66.47</ele><time>2026-09-01T13:12:03Z</time></trkpt><trkpt lat="59.2600236554" lon="30.6878805533"><ele>66.47</ele><time>2026-09-01T13:12:07Z</time></trkpt><trkpt lat="59.2599584442" lon="30.6880841497"><ele>66.95</ele><time>2026-09-01T13:12:28Z</time></trkpt><trkpt lat="59.2599337175" lon="30.6880683918"><ele>66.95</ele><time>2026-09-01T13:12:32Z</time></trkpt><trkpt lat="59.2598694284" lon="30.6879888475"><ele>66.95</ele><time>2026-09-01T13:12:38Z</time></trkpt><trkpt lat="59.2597590387" lon="30.6880748458"><ele>66.95</ele><time>2026-09-01T13:12:56Z</time></trkpt><trkpt lat="59.2597374972" lon="30.6880716607"><ele>66.95</ele><time>2026-09-01T13:12:58Z</time></trkpt><trkpt lat="59.2596374173" lon="30.6881315913"><ele>66.95</ele><time>2026-09-01T13:13:17Z</time></trkpt><trkpt lat="59.2596149538" lon="30.6881381292"><ele>67.43</ele><time>2026-09-01T13:13:27Z</time></trkpt><trkpt lat="59.2595276143" lon="30.6881604251"><ele>67.43</ele><time>2026-09-01T13:13:48Z</time></trkpt><trkpt lat="59.2594821844" lon="30.6880881730"><ele>67.43</ele><time>2026-09-01T13:14:03Z</time></trkpt><trkpt lat="59.2594038136" lon="30.6880502868"><ele>66.95</ele><time>2026-09-01T13:14:17Z</time></trkpt><trkpt lat="59.2593959346" lon="30.6879726704"><ele>66.95</ele><time>2026-09-01T13:14:30Z</time></trkpt><trkpt lat="59.2593624908" lon="30.6879141647"><ele>67.43</ele><time>2026-09-01T13:14:46Z</time></trkpt><trkpt lat="59.2593007162" lon="30.6879016757"><ele>67.43</ele><time>2026-09-01T13:15:01Z</time></trkpt><trkpt lat="59.2592341639" lon="30.6879364606"><ele>67.43</ele><time>2026-09-01T13:15:16Z</time></trkpt><trkpt lat="59.2591973674" lon="30.6880492810"><ele>67.43</ele><time>2026-09-01T13:15:35Z</time></trkpt><trkpt lat="59.2591773346" lon="30.6880661286"><ele>67.43</ele><time>2026-09-01T13:15:43Z</time></trkpt><trkpt lat="59.2590996344" lon="30.6881080382"><ele>67.43</ele><time>2026-09-01T13:15:58Z</time></trkpt><trkpt lat="59.2590621673" lon="30.6880654581"><ele>67.43</ele><time>2026-09-01T13:16:06Z</time></trkpt><trkpt lat="59.2590529472" lon="30.6881747581"><ele>67.91</ele><time>2026-09-01T13:16:22Z</time></trkpt><trkpt lat="59.2590108700" lon="30.6881665438"><ele>67.43</ele><time>2026-09-01T13:16:31Z</time></trkpt><trkpt lat="59.2589027435" lon="30.6882063579"><ele>67.43</ele><time>2026-09-01T13:16:47Z</time></trkpt><trkpt lat="59.2588954512" lon="30.6882168353"><ele>67.43</ele><time>2026-09-01T13:16:48Z</time></trkpt><trkpt lat="59.2588480096" lon="30.6882983074"><ele>67.43</ele><time>2026-09-01T13:17:03Z</time></trkpt><trkpt lat="59.2587848939" lon="30.6883139815"><ele>67.43</ele><time>2026-09-01T13:17:19Z</time></trkpt><trkpt lat="59.2587658670" lon="30.6883333437"><ele>67.43</ele><time>2026-09-01T13:17:33Z</time></trkpt><trkpt lat="59.2587168328" lon="30.6883786898"><ele>67.43</ele><time>2026-09-01T13:17:40Z</time></trkpt><trkpt lat="59.2586193513" lon="30.6884426437"><ele>67.43</ele><time>2026-09-01T13:17:56Z</time></trkpt><trkpt lat="59.2585707363" lon="30.6884777639"><ele>67.43</ele><time>2026-09-01T13:18:12Z</time></trkpt><trkpt lat="59.2585505359" lon="30.6885193381"><ele>67.43</ele><time>2026-09-01T13:18:25Z</time></trkpt><trkpt lat="59.2584722489" lon="30.6885172427"><ele>67.43</ele><time>2026-09-01T13:18:39Z</time></trkpt><trkpt lat="59.2585101351" lon="30.6885172427"><ele>66.95</ele><time>2026-09-01T13:18:54Z</time></trkpt><trkpt lat="59.2585389689" lon="30.6884575635"><ele>66.95</ele><time>2026-09-01T13:19:22Z</time></trkpt><trkpt lat="59.2584788706" lon="30.6884782668"><ele>66.95</ele><time>2026-09-01T13:19:37Z</time></trkpt><trkpt lat="59.2584402300" lon="30.6884599943"><ele>66.95</ele><time>2026-09-01T13:19:41Z</time></trkpt><trkpt lat="59.2583731748" lon="30.6886047497"><ele>66.95</ele><time>2026-09-01T13:19:59Z</time></trkpt><trkpt lat="59.2583018448" lon="30.6886044983"><ele>66.95</ele><time>2026-09-01T13:20:14Z</time></trkpt><trkpt lat="59.2582679819" lon="30.6884822901"><ele>66.95</ele><time>2026-09-01T13:20:30Z</time></trkpt><trkpt lat="59.2582280003" lon="30.6884190068"><ele>67.43</ele><time>2026-09-01T13:20:45Z</time></trkpt><trkpt lat="59.2581847496" lon="30.6883279793"><ele>67.43</ele><time>2026-09-01T13:20:59Z</time></trkpt><trkpt lat="59.2581538204" lon="30.6882000715"><ele>67.91</ele><time>2026-09-01T13:21:15Z</time></trkpt><trkpt lat="59.2580762878" lon="30.6881988142"><ele>67.43</ele><time>2026-09-01T13:21:33Z</time></trkpt><trkpt lat="59.2580055445" lon="30.6881952938"><ele>67.43</ele><time>2026-09-01T13:21:50Z</time></trkpt><trkpt lat="59.2579556722" lon="30.6882120576"><ele>67.43</ele><time>2026-09-01T13:22:06Z</time></trkpt><trkpt lat="59.2578748707" lon="30.6882311683"><ele>67.43</ele><time>2026-09-01T13:22:25Z</time></trkpt><trkpt lat="59.2578115035" lon="30.6882483512"><ele>67.91</ele><time>2026-09-01T13:22:43Z</time></trkpt><trkpt lat="59.2577805743" lon="30.6883024145"><ele>67.91</ele><time>2026-09-01T13:22:59Z</time></trkpt><trkpt lat="59.2577687558" lon="30.6884924322"><ele>67.43</ele><time>2026-09-01T13:23:17Z</time></trkpt><trkpt lat="59.2577162851" lon="30.6885456573"><ele>67.43</ele><time>2026-09-01T13:23:33Z</time></trkpt><trkpt lat="59.2577536684" lon="30.6885700487"><ele>67.43</ele><time>2026-09-01T13:23:53Z</time></trkpt><trkpt lat="59.2577804904" lon="30.6886642613"><ele>67.43</ele><time>2026-09-01T13:24:21Z</time></trkpt><trkpt lat="59.2577461246" lon="30.6886621658"><ele>67.43</ele><time>2026-09-01T13:24:44Z</time></trkpt><trkpt lat="59.2577759642" lon="30.6885692105"><ele>67.43</ele><time>2026-09-01T13:24:59Z</time></trkpt><trkpt lat="59.2576979287" lon="30.6885568053"><ele>67.91</ele><time>2026-09-01T13:25:37Z</time></trkpt><trkpt lat="59.2576960847" lon="30.6885195896"><ele>67.91</ele><time>2026-09-01T13:26:08Z</time></trkpt><trkpt lat="59.2576769739" lon="30.6884045061"><ele>67.91</ele><time>2026-09-01T13:26:40Z</time></trkpt><trkpt lat="59.2576848529" lon="30.6884910073"><ele>67.43</ele><time>2026-09-01T13:27:14Z</time></trkpt><trkpt lat="59.2576628085" lon="30.6885280553"><ele>67.43</ele><time>2026-09-01T13:27:49Z</time></trkpt><trkpt lat="59.2576721963" lon="30.6885035802"><ele>67.43</ele><time>2026-09-01T13:28:24Z</time></trkpt><trkpt lat="59.2577017844" lon="30.6885485072"><ele>67.43</ele><time>2026-09-01T13:28:48Z</time></trkpt><trkpt lat="59.2576627247" lon="30.6884837989"><ele>67.43</ele><time>2026-09-01T13:29:04Z</time></trkpt><trkpt lat="59.2576093320" lon="30.6885210983"><ele>67.43</ele><time>2026-09-01T13:29:21Z</time></trkpt><trkpt lat="59.2575493176" lon="30.6885241158"><ele>67.43</ele><time>2026-09-01T13:29:37Z</time></trkpt><trkpt lat="59.2575427797" lon="30.6885546260"><ele>67.43</ele><time>2026-09-01T13:29:46Z</time></trkpt><trkpt lat="59.2574273609" lon="30.6886552926"><ele>67.43</ele><time>2026-09-01T13:30:03Z</time></trkpt><trkpt lat="59.2574173026" lon="30.6884970423"><ele>67.43</ele><time>2026-09-01T13:30:19Z</time></trkpt><trkpt lat="59.2573941685" lon="30.6884014886"><ele>67.43</ele><time>2026-09-01T13:30:29Z</time></trkpt><trkpt lat="59.2573286220" lon="30.6882990617"><ele>67.43</ele><time>2026-09-01T13:30:37Z</time></trkpt><trkpt lat="59.2572784983" lon="30.6881880015"><ele>67.91</ele><time>2026-09-01T13:30:51Z</time></trkpt><trkpt lat="59.2572417017" lon="30.6882936135"><ele>67.43</ele><time>2026-09-01T13:30:59Z</time></trkpt><trkpt lat="59.2572185677" lon="30.6883649435"><ele>67.43</ele><time>2026-09-01T13:31:16Z</time></trkpt><trkpt lat="59.2571515124" lon="30.6884299871"><ele>67.43</ele><time>2026-09-01T13:31:34Z</time></trkpt><trkpt lat="59.2570886482" lon="30.6883371994"><ele>67.43</ele><time>2026-09-01T13:31:54Z</time></trkpt><trkpt lat="59.2570108641" lon="30.6882841419"><ele>67.43</ele><time>2026-09-01T13:32:13Z</time></trkpt><trkpt lat="59.2569687031" lon="30.6882318389"><ele>67.43</ele><time>2026-09-01T13:32:18Z</time></trkpt><trkpt lat="59.2569029052" lon="30.6884120498"><ele>67.91</ele><time>2026-09-01T13:32:33Z</time></trkpt><trkpt lat="59.2567973770" lon="30.6885345094"><ele>67.91</ele><time>2026-09-01T13:32:48Z</time></trkpt><trkpt lat="59.2567368597" lon="30.6885928474"><ele>67.91</ele><time>2026-09-01T13:33:04Z</time></trkpt><trkpt lat="59.2566531245" lon="30.6889831927"><ele>67.91</ele><time>2026-09-01T13:33:27Z</time></trkpt><trkpt lat="59.2565543018" lon="30.6891730428"><ele>68.39</ele><time>2026-09-01T13:33:46Z</time></trkpt><trkpt lat="59.2564522102" lon="30.6890727952"><ele>68.39</ele><time>2026-09-01T13:33:56Z</time></trkpt><trkpt lat="59.2563394736" lon="30.6889828574"><ele>68.39</ele><time>2026-09-01T13:34:12Z</time></trkpt><trkpt lat="59.2562288325" lon="30.6889412832"><ele>68.39</ele><time>2026-09-01T13:34:27Z</time></trkpt><trkpt lat="59.2562190257" lon="30.6888668519"><ele>68.39</ele><time>2026-09-01T13:34:31Z</time></trkpt><trkpt lat="59.2561544850" lon="30.6887889002"><ele>67.91</ele><time>2026-09-01T13:34:43Z</time></trkpt><trkpt lat="59.2561222985" lon="30.6889131200"><ele>68.87</ele><time>2026-09-01T13:35:05Z</time></trkpt><trkpt lat="59.2562035192" lon="30.6888563745"><ele>68.87</ele><time>2026-09-01T13:35:19Z</time></trkpt><trkpt lat="59.2563822214" lon="30.6886101980"><ele>68.87</ele><time>2026-09-01T13:35:37Z</time></trkpt><trkpt lat="59.2564689741" lon="30.6884944439"><ele>68.87</ele><time>2026-09-01T13:35:56Z</time></trkpt><trkpt lat="59.2564727459" lon="30.6884817034"><ele>68.87</ele><time>2026-09-01T13:35:57Z</time></trkpt><trkpt lat="59.2564041819" lon="30.6884651911"><ele>68.87</ele><time>2026-09-01T13:36:20Z</time></trkpt><trkpt lat="59.2564045172" lon="30.6885391194"><ele>68.87</ele><time>2026-09-01T13:36:46Z</time></trkpt><trkpt lat="59.2563583329" lon="30.6886491738"><ele>69.35</ele><time>2026-09-01T13:37:12Z</time></trkpt><trkpt lat="59.2562822253" lon="30.6887575518"><ele>69.35</ele><time>2026-09-01T13:37:30Z</time></trkpt><trkpt lat="59.2561548203" lon="30.6888668519"><ele>69.35</ele><time>2026-09-01T13:37:46Z</time></trkpt><trkpt lat="59.2561261542" lon="30.6888821069"><ele>69.35</ele><time>2026-09-01T13:37:51Z</time></trkpt><trkpt lat="59.2560038622" lon="30.6890210789"><ele>69.35</ele><time>2026-09-01T13:38:06Z</time></trkpt><trkpt lat="59.2559751123" lon="30.6890170556"><ele>69.35</ele><time>2026-09-01T13:38:09Z</time></trkpt><trkpt lat="59.2558695842" lon="30.6890623178"><ele>69.35</ele><time>2026-09-01T13:38:19Z</time></trkpt><trkpt lat="59.2558352184" lon="30.6890649162"><ele>69.35</ele><time>2026-09-01T13:38:22Z</time></trkpt><trkpt lat="59.2558113299" lon="30.6890205760"><ele>69.35</ele><time>2026-09-01T13:38:39Z</time></trkpt><trkpt lat="59.2557939794" lon="30.6891022995"><ele>69.35</ele><time>2026-09-01T13:39:03Z</time></trkpt><trkpt lat="59.2558230646" lon="30.6890856195"><ele>69.83</ele><time>2026-09-01T13:39:24Z</time></trkpt><trkpt lat="59.2559226416" lon="30.6890386809"><ele>69.83</ele><time>2026-09-01T13:39:39Z</time></trkpt><trkpt lat="59.2559262458" lon="30.6889752299"><ele>70.31</ele><time>2026-09-01T13:40:09Z</time></trkpt><trkpt lat="59.2558621243" lon="30.6890193187"><ele>71.27</ele><time>2026-09-01T13:40:41Z</time></trkpt><trkpt lat="59.2558341287" lon="30.6891665049"><ele>71.27</ele><time>2026-09-01T13:41:01Z</time></trkpt><trkpt lat="59.2558003496" lon="30.6891498249"><ele>70.31</ele><time>2026-09-01T13:41:17Z</time></trkpt><trkpt lat="59.2558035348" lon="30.6892593764"><ele>70.31</ele><time>2026-09-01T13:41:32Z</time></trkpt><trkpt lat="59.2557607032" lon="30.6893995218"><ele>70.31</ele><time>2026-09-01T13:41:49Z</time></trkpt><trkpt lat="59.2557420116" lon="30.6894282717"><ele>70.31</ele><time>2026-09-01T13:41:53Z</time></trkpt><trkpt lat="59.2557089869" lon="30.6895997655"><ele>70.31</ele><time>2026-09-01T13:42:12Z</time></trkpt><trkpt lat="59.2556795664" lon="30.6896425132"><ele>70.31</ele><time>2026-09-01T13:42:15Z</time></trkpt><trkpt lat="59.2555799894" lon="30.6897786353"><ele>70.31</ele><time>2026-09-01T13:42:25Z</time></trkpt><trkpt lat="59.2554513272" lon="30.6897287630"><ele>70.31</ele><time>2026-09-01T13:42:40Z</time></trkpt><trkpt lat="59.2554517463" lon="30.6897834968"><ele>69.83</ele><time>2026-09-01T13:42:45Z</time></trkpt><trkpt lat="59.2554922309" lon="30.6898264959"><ele>69.83</ele><time>2026-09-01T13:42:56Z</time></trkpt><trkpt lat="59.2553814221" lon="30.6899921224"><ele>69.83</ele><time>2026-09-01T13:43:13Z</time></trkpt><trkpt lat="59.2552882992" lon="30.6901180185"><ele>69.83</ele><time>2026-09-01T13:43:32Z</time></trkpt><trkpt lat="59.2551961821" lon="30.6902077887"><ele>69.83</ele><time>2026-09-01T13:43:46Z</time></trkpt><trkpt lat="59.2550773267" lon="30.6903809588"><ele>69.83</ele><time>2026-09-01T13:44:03Z</time></trkpt><trkpt lat="59.2550623231" lon="30.6905107945"><ele>69.83</ele><time>2026-09-01T13:44:13Z</time></trkpt><trkpt lat="59.2551709525" lon="30.6904554740"><ele>69.83</ele><time>2026-09-01T13:44:33Z</time></trkpt><trkpt lat="59.2551884707" lon="30.6905594096"><ele>69.83</ele><time>2026-09-01T13:44:51Z</time></trkpt><trkpt lat="59.2552126106" lon="30.6906827074"><ele>69.83</ele><time>2026-09-01T13:45:04Z</time></trkpt><trkpt lat="59.2551848665" lon="30.6909598131"><ele>69.83</ele><time>2026-09-01T13:45:20Z</time></trkpt><trkpt lat="59.2551985290" lon="30.6910548639"><ele>69.83</ele><time>2026-09-01T13:45:35Z</time></trkpt><trkpt lat="59.2551824357" lon="30.6911078375"><ele>69.83</ele><time>2026-09-01T13:45:56Z</time></trkpt><trkpt lat="59.2552002054" lon="30.6913053151"><ele>69.35</ele><time>2026-09-01T13:46:11Z</time></trkpt><trkpt lat="59.2552767321" lon="30.6914329715"><ele>69.35</ele><time>2026-09-01T13:46:41Z</time></trkpt><trkpt lat="59.2552593816" lon="30.6916769687"><ele>69.35</ele><time>2026-09-01T13:46:58Z</time></trkpt><trkpt lat="59.2552452162" lon="30.6917730253"><ele>69.35</ele><time>2026-09-01T13:47:06Z</time></trkpt><trkpt lat="59.2551012989" lon="30.6920005102"><ele>68.87</ele><time>2026-09-01T13:47:26Z</time></trkpt><trkpt lat="59.2551069986" lon="30.6920839101"><ele>69.35</ele><time>2026-09-01T13:47:34Z</time></trkpt><trkpt lat="59.2551201582" lon="30.6922596786"><ele>69.35</ele><time>2026-09-01T13:47:50Z</time></trkpt><trkpt lat="59.2550982814" lon="30.6923578307"><ele>68.87</ele><time>2026-09-01T13:48:13Z</time></trkpt><trkpt lat="59.2550952639" lon="30.6923196930"><ele>68.87</ele><time>2026-09-01T13:48:37Z</time></trkpt><trkpt lat="59.2551276181" lon="30.6922470219"><ele>68.87</ele><time>2026-09-01T13:48:56Z</time></trkpt><trkpt lat="59.2551745567" lon="30.6922312640"><ele>68.87</ele><time>2026-09-01T13:49:23Z</time></trkpt><trkpt lat="59.2551774904" lon="30.6921858341"><ele>68.87</ele><time>2026-09-01T13:49:50Z</time></trkpt><trkpt lat="59.2550977785" lon="30.6922757719"><ele>68.87</ele><time>2026-09-01T13:50:06Z</time></trkpt><trkpt lat="59.2551126983" lon="30.6925037596"><ele>68.87</ele><time>2026-09-01T13:50:23Z</time></trkpt><trkpt lat="59.2551238462" lon="30.6925158296"><ele>68.87</ele><time>2026-09-01T13:50:25Z</time></trkpt><trkpt lat="59.2551431246" lon="30.6925812922"><ele>68.87</ele><time>2026-09-01T13:50:32Z</time></trkpt><trkpt lat="59.2550727166" lon="30.6927233655"><ele>68.87</ele><time>2026-09-01T13:50:56Z</time></trkpt><trkpt lat="59.2550701182" lon="30.6928623375"><ele>68.87</ele><time>2026-09-01T13:51:04Z</time></trkpt><trkpt lat="59.2551721260" lon="30.6927203480"><ele>68.39</ele><time>2026-09-01T13:51:21Z</time></trkpt><trkpt lat="59.2552409414" lon="30.6927224435"><ele>68.39</ele><time>2026-09-01T13:51:33Z</time></trkpt><trkpt lat="59.2553570308" lon="30.6926571485"><ele>68.39</ele><time>2026-09-01T13:51:49Z</time></trkpt><trkpt lat="59.2554061487" lon="30.6926040072"><ele>68.39</ele><time>2026-09-01T13:51:58Z</time></trkpt><trkpt lat="59.2555506527" lon="30.6925854832"><ele>68.39</ele><time>2026-09-01T13:52:15Z</time></trkpt><trkpt lat="59.2556654010" lon="30.6924557313"><ele>68.39</ele><time>2026-09-01T13:52:30Z</time></trkpt><trkpt lat="59.2557697557" lon="30.6925019156"><ele>68.39</ele><time>2026-09-01T13:52:49Z</time></trkpt><trkpt lat="59.2559057102" lon="30.6925956253"><ele>68.39</ele><time>2026-09-01T13:53:09Z</time></trkpt><trkpt lat="59.2559431773" lon="30.6925367843"><ele>67.91</ele><time>2026-09-01T13:53:26Z</time></trkpt><trkpt lat="59.2559828237" lon="30.6924829725"><ele>67.43</ele><time>2026-09-01T13:54:03Z</time></trkpt><trkpt lat="59.2561086360" lon="30.6926433183"><ele>67.43</ele><time>2026-09-01T13:54:25Z</time></trkpt><trkpt lat="59.2562539782" lon="30.6927672029"><ele>66.95</ele><time>2026-09-01T13:54:54Z</time></trkpt><trkpt lat="59.2562849913" lon="30.6928262115"><ele>66.95</ele><time>2026-09-01T13:55:01Z</time></trkpt><trkpt lat="59.2563947942" lon="30.6930445600"><ele>66.47</ele><time>2026-09-01T13:55:17Z</time></trkpt><trkpt lat="59.2565049324" lon="30.6931476574"><ele>66.47</ele><time>2026-09-01T13:55:33Z</time></trkpt><trkpt lat="59.2565285694" lon="30.6931991223"><ele>66.47</ele><time>2026-09-01T13:55:39Z</time></trkpt><trkpt lat="59.2566369474" lon="30.6933349092"><ele>66.47</ele><time>2026-09-01T13:55:50Z</time></trkpt><trkpt lat="59.2566636018" lon="30.6933686044"><ele>65.99</ele><time>2026-09-01T13:55:53Z</time></trkpt><trkpt lat="59.2567204311" lon="30.6934098434"><ele>62.62</ele><time>2026-09-01T13:55:59Z</time></trkpt><trkpt lat="59.2567454092" lon="30.6934142858"><ele>59.26</ele><time>2026-09-01T13:56:02Z</time></trkpt><trkpt lat="59.2567607481" lon="30.6933992822"><ele>75.12</ele><time>2026-09-01T13:56:06Z</time></trkpt><trkpt lat="59.2567642685" lon="30.6933945883"><ele>67.43</ele><time>2026-09-01T13:56:07Z</time></trkpt><trkpt lat="59.2567763384" lon="30.6933810934"><ele>65.51</ele><time>2026-09-01T13:56:10Z</time></trkpt><trkpt lat="59.2568357661" lon="30.6932945084"><ele>65.51</ele><time>2026-09-01T13:56:23Z</time></trkpt><trkpt lat="59.2568815313" lon="30.6932668481"><ele>65.51</ele><time>2026-09-01T13:56:30Z</time></trkpt><trkpt lat="59.2570071761" lon="30.6932854559"><ele>65.51</ele><time>2026-09-01T13:56:46Z</time></trkpt><trkpt lat="59.2570962757" lon="30.6932868809"><ele>65.51</ele><time>2026-09-01T13:56:55Z</time></trkpt><trkpt lat="59.2571476568" lon="30.6932588015"><ele>65.51</ele><time>2026-09-01T13:57:14Z</time></trkpt><trkpt lat="59.2572013848" lon="30.6932596397"><ele>65.51</ele><time>2026-09-01T13:57:33Z</time></trkpt><trkpt lat="59.2572553642" lon="30.6933662575"><ele>65.51</ele><time>2026-09-01T13:57:48Z</time></trkpt><trkpt lat="59.2573538516" lon="30.6933649164"><ele>65.51</ele><time>2026-09-01T13:58:07Z</time></trkpt><trkpt lat="59.2573788296" lon="30.6933660898"><ele>65.51</ele><time>2026-09-01T13:58:11Z</time></trkpt><trkpt lat="59.2574150395" lon="30.6934653316"><ele>65.51</ele><time>2026-09-01T13:58:19Z</time></trkpt><trkpt lat="59.2575179692" lon="30.6935809180"><ele>65.51</ele><time>2026-09-01T13:58:32Z</time></trkpt><trkpt lat="59.2576231621" lon="30.6936499011"><ele>65.51</ele><time>2026-09-01T13:58:45Z</time></trkpt><trkpt lat="59.2576907203" lon="30.6937831733"><ele>65.03</ele><time>2026-09-01T13:59:00Z</time></trkpt><trkpt lat="59.2576783150" lon="30.6937400065"><ele>65.03</ele><time>2026-09-01T13:59:24Z</time></trkpt><trkpt lat="59.2576699331" lon="30.6936569419"><ele>65.03</ele><time>2026-09-01T13:59:28Z</time></trkpt><trkpt lat="59.2576246709" lon="30.6936340593"><ele>65.03</ele><time>2026-09-01T13:59:54Z</time></trkpt><trkpt lat="59.2576616351" lon="30.6937289424"><ele>65.03</ele><time>2026-09-01T14:00:22Z</time></trkpt><trkpt lat="59.2576830089" lon="30.6938153598"><ele>65.03</ele><time>2026-09-01T14:00:44Z</time></trkpt><trkpt lat="59.2577057239" lon="30.6937379949"><ele>65.03</ele><time>2026-09-01T14:01:00Z</time></trkpt><trkpt lat="59.2576867808" lon="30.6936469674"><ele>64.55</ele><time>2026-09-01T14:01:26Z</time></trkpt><trkpt lat="59.2577090766" lon="30.6937534176"><ele>64.55</ele><time>2026-09-01T14:01:51Z</time></trkpt><trkpt lat="59.2576900497" lon="30.6937418506"><ele>64.55</ele><time>2026-09-01T14:02:10Z</time></trkpt><trkpt lat="59.2576447874" lon="30.6937845144"><ele>64.55</ele><time>2026-09-01T14:02:44Z</time></trkpt><trkpt lat="59.2576821707" lon="30.6937949918"><ele>64.07</ele><time>2026-09-01T14:03:14Z</time></trkpt><trkpt lat="59.2576965876" lon="30.6937682535"><ele>64.07</ele><time>2026-09-01T14:03:44Z</time></trkpt><trkpt lat="59.2578280997" lon="30.6938047986"><ele>64.55</ele><time>2026-09-01T14:04:13Z</time></trkpt><trkpt lat="59.2577692587" lon="30.6937472150"><ele>64.55</ele><time>2026-09-01T14:04:24Z</time></trkpt><trkpt lat="59.2577877827" lon="30.6937125977"><ele>64.55</ele><time>2026-09-01T14:04:38Z</time></trkpt><trkpt lat="59.2578815762" lon="30.6936516613"><ele>65.51</ele><time>2026-09-01T14:04:53Z</time></trkpt><trkpt lat="59.2579864338" lon="30.6938203052"><ele>65.51</ele><time>2026-09-01T14:05:08Z</time></trkpt><trkpt lat="59.2580818199" lon="30.6939311139"><ele>65.51</ele><time>2026-09-01T14:05:24Z</time></trkpt><trkpt lat="59.2581732664" lon="30.6940247398"><ele>65.03</ele><time>2026-09-01T14:05:42Z</time></trkpt><trkpt lat="59.2582062073" lon="30.6940829102"><ele>65.03</ele><time>2026-09-01T14:05:48Z</time></trkpt><trkpt lat="59.2582782917" lon="30.6941049546"><ele>65.03</ele><time>2026-09-01T14:05:56Z</time></trkpt><trkpt lat="59.2583339475" lon="30.6939800642"><ele>65.03</ele><time>2026-09-01T14:06:10Z</time></trkpt><trkpt lat="59.2583232187" lon="30.6938506477"><ele>65.03</ele><time>2026-09-01T14:06:31Z</time></trkpt><trkpt lat="59.2582663894" lon="30.6935992744"><ele>65.03</ele><time>2026-09-01T14:06:46Z</time></trkpt><trkpt lat="59.2582542356" lon="30.6934659183"><ele>65.03</ele><time>2026-09-01T14:06:55Z</time></trkpt><trkpt lat="59.2582431715" lon="30.6932174787"><ele>65.03</ele><time>2026-09-01T14:07:10Z</time></trkpt><trkpt lat="59.2581934668" lon="30.6930101942"><ele>64.55</ele><time>2026-09-01T14:07:25Z</time></trkpt><trkpt lat="59.2581581790" lon="30.6927532051"><ele>64.55</ele><time>2026-09-01T14:07:41Z</time></trkpt><trkpt lat="59.2581263278" lon="30.6925574038"><ele>64.55</ele><time>2026-09-01T14:07:56Z</time></trkpt><trkpt lat="59.2580710072" lon="30.6922730897"><ele>64.55</ele><time>2026-09-01T14:08:13Z</time></trkpt><trkpt lat="59.2580255773" lon="30.6921016797"><ele>64.07</ele><time>2026-09-01T14:08:29Z</time></trkpt><trkpt lat="59.2579752859" lon="30.6918332074"><ele>64.07</ele><time>2026-09-01T14:08:43Z</time></trkpt><trkpt lat="59.2580148485" lon="30.6915980950"><ele>64.07</ele><time>2026-09-01T14:08:59Z</time></trkpt><trkpt lat="59.2580943927" lon="30.6913742982"><ele>64.07</ele><time>2026-09-01T14:09:15Z</time></trkpt><trkpt lat="59.2581671476" lon="30.6912578736"><ele>64.07</ele><time>2026-09-01T14:09:28Z</time></trkpt><trkpt lat="59.2581978254" lon="30.6912124436"><ele>64.07</ele><time>2026-09-01T14:09:47Z</time></trkpt><trkpt lat="59.2582129128" lon="30.6912334822"><ele>64.07</ele><time>2026-09-01T14:10:09Z</time></trkpt><trkpt lat="59.2582253180" lon="30.6913252641"><ele>64.07</ele><time>2026-09-01T14:10:39Z</time></trkpt><trkpt lat="59.2582506314" lon="30.6912902277"><ele>64.07</ele><time>2026-09-01T14:10:53Z</time></trkpt><trkpt lat="59.2582492903" lon="30.6912312191"><ele>64.07</ele><time>2026-09-01T14:11:13Z</time></trkpt><trkpt lat="59.2583241407" lon="30.6912063248"><ele>63.58</ele><time>2026-09-01T14:11:29Z</time></trkpt><trkpt lat="59.2584165093" lon="30.6912567839"><ele>63.58</ele><time>2026-09-01T14:11:49Z</time></trkpt><trkpt lat="59.2585370410" lon="30.6912180595"><ele>63.58</ele><time>2026-09-01T14:12:09Z</time></trkpt><trkpt lat="59.2586269788" lon="30.6911464781"><ele>63.58</ele><time>2026-09-01T14:12:26Z</time></trkpt><trkpt lat="59.2586663738" lon="30.6911328994"><ele>63.58</ele><time>2026-09-01T14:12:31Z</time></trkpt><trkpt lat="59.2587714829" lon="30.6910531875"><ele>63.58</ele><time>2026-09-01T14:12:46Z</time></trkpt><trkpt lat="59.2589005642" lon="30.6910412852"><ele>63.58</ele><time>2026-09-01T14:13:03Z</time></trkpt><trkpt lat="59.2590345070" lon="30.6909905747"><ele>63.10</ele><time>2026-09-01T14:13:19Z</time></trkpt><trkpt lat="59.2591010593" lon="30.6909660157"><ele>63.10</ele><time>2026-09-01T14:13:28Z</time></trkpt><trkpt lat="59.2592061684" lon="30.6909621600"><ele>63.10</ele><time>2026-09-01T14:13:41Z</time></trkpt><trkpt lat="59.2593142949" lon="30.6908932608"><ele>63.10</ele><time>2026-09-01T14:13:57Z</time></trkpt><trkpt lat="59.2594331503" lon="30.6908179913"><ele>63.10</ele><time>2026-09-01T14:14:12Z</time></trkpt><trkpt lat="59.2595827673" lon="30.6907557137"><ele>63.10</ele><time>2026-09-01T14:14:28Z</time></trkpt><trkpt lat="59.2597007845" lon="30.6907387823"><ele>63.10</ele><time>2026-09-01T14:14:43Z</time></trkpt><trkpt lat="59.2598182149" lon="30.6906848028"><ele>63.10</ele><time>2026-09-01T14:15:01Z</time></trkpt><trkpt lat="59.2599277664" lon="30.6906705536"><ele>62.62</ele><time>2026-09-01T14:15:18Z</time></trkpt><trkpt lat="59.2600032035" lon="30.6906386185"><ele>62.62</ele><time>2026-09-01T14:15:29Z</time></trkpt><trkpt lat="59.2600987572" lon="30.6906263810"><ele>62.62</ele><time>2026-09-01T14:15:38Z</time></trkpt><trkpt lat="59.2602176964" lon="30.6905490998"><ele>62.62</ele><time>2026-09-01T14:15:56Z</time></trkpt><trkpt lat="59.2603549082" lon="30.6905687973"><ele>62.62</ele><time>2026-09-01T14:16:10Z</time></trkpt><trkpt lat="59.2604527250" lon="30.6905080285"><ele>62.62</ele><time>2026-09-01T14:16:25Z</time></trkpt><trkpt lat="59.2604850791" lon="30.6904973835"><ele>62.62</ele><time>2026-09-01T14:16:32Z</time></trkpt><trkpt lat="59.2605409864" lon="30.6904910970"><ele>62.62</ele><time>2026-09-01T14:16:38Z</time></trkpt><trkpt lat="59.2606358696" lon="30.6904403027"><ele>62.62</ele><time>2026-09-01T14:16:48Z</time></trkpt><trkpt lat="59.2607379612" lon="30.6903952081"><ele>62.62</ele><time>2026-09-01T14:17:05Z</time></trkpt><trkpt lat="59.2608777713" lon="30.6903564837"><ele>62.14</ele><time>2026-09-01T14:17:20Z</time></trkpt><trkpt lat="59.2608988937" lon="30.6903486885"><ele>62.14</ele><time>2026-09-01T14:17:38Z</time></trkpt><trkpt lat="59.2609365284" lon="30.6903703138"><ele>62.14</ele><time>2026-09-01T14:17:56Z</time></trkpt><trkpt lat="59.2609450780" lon="30.6903679669"><ele>62.14</ele><time>2026-09-01T14:17:57Z</time></trkpt><trkpt lat="59.2610166594" lon="30.6903483532"><ele>62.14</ele><time>2026-09-01T14:18:14Z</time></trkpt><trkpt lat="59.2611633427" lon="30.6903284043"><ele>62.14</ele><time>2026-09-01T14:18:29Z</time></trkpt><trkpt lat="59.2611759156" lon="30.6903331820"><ele>62.14</ele><time>2026-09-01T14:18:31Z</time></trkpt><trkpt lat="59.2611671984" lon="30.6903418992"><ele>62.14</ele><time>2026-09-01T14:18:59Z</time></trkpt><trkpt lat="59.2611439805" lon="30.6902860757"><ele>62.14</ele><time>2026-09-01T14:19:24Z</time></trkpt><trkpt lat="59.2611316592" lon="30.6903483532"><ele>62.14</ele><time>2026-09-01T14:19:47Z</time></trkpt><trkpt lat="59.2611917574" lon="30.6905082799"><ele>62.14</ele><time>2026-09-01T14:19:59Z</time></trkpt><trkpt lat="59.2611451540" lon="30.6905653607"><ele>62.14</ele><time>2026-09-01T14:20:16Z</time></trkpt><trkpt lat="59.2611133866" lon="30.6906071864"><ele>62.14</ele><time>2026-09-01T14:20:23Z</time></trkpt><trkpt lat="59.2610293161" lon="30.6907916721"><ele>62.14</ele><time>2026-09-01T14:20:41Z</time></trkpt><trkpt lat="59.2608994804" lon="30.6909044087"><ele>61.66</ele><time>2026-09-01T14:21:06Z</time></trkpt><trkpt lat="59.2608294077" lon="30.6910053268"><ele>61.66</ele><time>2026-09-01T14:21:25Z</time></trkpt><trkpt lat="59.2607827205" lon="30.6911155488"><ele>61.66</ele><time>2026-09-01T14:21:42Z</time></trkpt><trkpt lat="59.2607204430" lon="30.6911630742"><ele>61.66</ele><time>2026-09-01T14:22:18Z</time></trkpt><trkpt lat="59.2608190980" lon="30.6911341567"><ele>61.66</ele><time>2026-09-01T14:22:43Z</time></trkpt><trkpt lat="59.2607428227" lon="30.6911124475"><ele>61.66</ele><time>2026-09-01T14:23:23Z</time></trkpt><trkpt lat="59.2608028371" lon="30.6910953484"><ele>61.66</ele><time>2026-09-01T14:23:58Z</time></trkpt><trkpt lat="59.2607762665" lon="30.6910678558"><ele>61.66</ele><time>2026-09-01T14:24:20Z</time></trkpt><trkpt lat="59.2607726622" lon="30.6910914928"><ele>61.18</ele><time>2026-09-01T14:24:51Z</time></trkpt><trkpt lat="59.2608134821" lon="30.6910429616"><ele>61.18</ele><time>2026-09-01T14:25:22Z</time></trkpt><trkpt lat="59.2608092073" lon="30.6909657642"><ele>61.18</ele><time>2026-09-01T14:25:44Z</time></trkpt><trkpt lat="59.2608477641" lon="30.6907469966"><ele>61.18</ele><time>2026-09-01T14:26:02Z</time></trkpt><trkpt lat="59.2608664557" lon="30.6906082761"><ele>61.18</ele><time>2026-09-01T14:26:16Z</time></trkpt><trkpt lat="59.2608766817" lon="30.6905824598"><ele>61.18</ele><time>2026-09-01T14:26:19Z</time></trkpt><trkpt lat="59.2609033361" lon="30.6904304959"><ele>61.18</ele><time>2026-09-01T14:26:33Z</time></trkpt><trkpt lat="59.2607848160" lon="30.6904300768"><ele>61.18</ele><time>2026-09-01T14:26:50Z</time></trkpt><trkpt lat="59.2606961355" lon="30.6904403865"><ele>61.18</ele><time>2026-09-01T14:27:07Z</time></trkpt><trkpt lat="59.2605787050" lon="30.6904540490"><ele>61.18</ele><time>2026-09-01T14:27:21Z</time></trkpt><trkpt lat="59.2604699079" lon="30.6905380357"><ele>61.18</ele><time>2026-09-01T14:27:36Z</time></trkpt><trkpt lat="59.2603745218" lon="30.6905495189"><ele>61.18</ele><time>2026-09-01T14:27:51Z</time></trkpt><trkpt lat="59.2602483742" lon="30.6905960385"><ele>61.18</ele><time>2026-09-01T14:28:04Z</time></trkpt><trkpt lat="59.2602194566" lon="30.6906054262"><ele>60.70</ele><time>2026-09-01T14:28:08Z</time></trkpt><trkpt lat="59.2600707617" lon="30.6906470004"><ele>60.70</ele><time>2026-09-01T14:28:27Z</time></trkpt><trkpt lat="59.2599388305" lon="30.6906906702"><ele>60.70</ele><time>2026-09-01T14:28:42Z</time></trkpt><trkpt lat="59.2598520778" lon="30.6907097809"><ele>60.70</ele><time>2026-09-01T14:28:52Z</time></trkpt><trkpt lat="59.2597271875" lon="30.6907489244"><ele>60.70</ele><time>2026-09-01T14:29:09Z</time></trkpt><trkpt lat="59.2596245091" lon="30.6907801889"><ele>60.70</ele><time>2026-09-01T14:29:24Z</time></trkpt><trkpt lat="59.2595305480" lon="30.6908231042"><ele>60.70</ele><time>2026-09-01T14:29:36Z</time></trkpt><trkpt lat="59.2594814301" lon="30.6908338331"><ele>60.22</ele><time>2026-09-01T14:29:42Z</time></trkpt><trkpt lat="59.2594764009" lon="30.6907954440"><ele>60.22</ele><time>2026-09-01T14:29:58Z</time></trkpt><trkpt lat="59.2595123593" lon="30.6908504292"><ele>60.22</ele><time>2026-09-01T14:30:18Z</time></trkpt><trkpt lat="59.2594137043" lon="30.6908852141"><ele>60.22</ele><time>2026-09-01T14:30:36Z</time></trkpt><trkpt lat="59.2593784165" lon="30.6908765808"><ele>60.22</ele><time>2026-09-01T14:30:50Z</time></trkpt><trkpt lat="59.2593285441" lon="30.6909302250"><ele>60.22</ele><time>2026-09-01T14:31:07Z</time></trkpt><trkpt lat="59.2592265364" lon="30.6909679435"><ele>59.74</ele><time>2026-09-01T14:31:21Z</time></trkpt><trkpt lat="59.2591184936" lon="30.6910096016"><ele>59.74</ele><time>2026-09-01T14:31:41Z</time></trkpt><trkpt lat="59.2590913363" lon="30.6909985375"><ele>59.74</ele><time>2026-09-01T14:31:44Z</time></trkpt><trkpt lat="59.2589946929" lon="30.6910276227"><ele>59.74</ele><time>2026-09-01T14:31:58Z</time></trkpt><trkpt lat="59.2588594928" lon="30.6910349987"><ele>59.74</ele><time>2026-09-01T14:32:13Z</time></trkpt><trkpt lat="59.2587568983" lon="30.6910393573"><ele>59.74</ele><time>2026-09-01T14:32:28Z</time></trkpt><trkpt lat="59.2587522883" lon="30.6910432130"><ele>59.74</ele><time>2026-09-01T14:32:29Z</time></trkpt><trkpt lat="59.2586950399" lon="30.6911124475"><ele>59.74</ele><time>2026-09-01T14:32:39Z</time></trkpt><trkpt lat="59.2585577443" lon="30.6911638286"><ele>60.22</ele><time>2026-09-01T14:32:56Z</time></trkpt><trkpt lat="59.2584222928" lon="30.6910976116"><ele>60.22</ele><time>2026-09-01T14:33:12Z</time></trkpt><trkpt lat="59.2584306747" lon="30.6910660956"><ele>60.22</ele><time>2026-09-01T14:33:28Z</time></trkpt><trkpt lat="59.2583416589" lon="30.6909394450"><ele>60.70</ele><time>2026-09-01T14:33:54Z</time></trkpt><trkpt lat="59.2582652159" lon="30.6908746529"><ele>60.70</ele><time>2026-09-01T14:34:11Z</time></trkpt><trkpt lat="59.2581768706" lon="30.6908156443"><ele>60.22</ele><time>2026-09-01T14:34:29Z</time></trkpt><trkpt lat="59.2580777965" lon="30.6907169893"><ele>60.70</ele><time>2026-09-01T14:34:44Z</time></trkpt><trkpt lat="59.2580155190" lon="30.6905246247"><ele>60.70</ele><time>2026-09-01T14:35:00Z</time></trkpt><trkpt lat="59.2579338793" lon="30.6903126463"><ele>60.70</ele><time>2026-09-01T14:35:16Z</time></trkpt><trkpt lat="59.2579218093" lon="30.6901972275"><ele>61.18</ele><time>2026-09-01T14:35:26Z</time></trkpt><trkpt lat="59.2578942329" lon="30.6901127379"><ele>61.18</ele><time>2026-09-01T14:35:32Z</time></trkpt><trkpt lat="59.2578028701" lon="30.6899458542"><ele>61.66</ele><time>2026-09-01T14:35:47Z</time></trkpt><trkpt lat="59.2577692587" lon="30.6897969916"><ele>61.66</ele><time>2026-09-01T14:35:58Z</time></trkpt><trkpt lat="59.2576956656" lon="30.6895880308"><ele>62.14</ele><time>2026-09-01T14:36:18Z</time></trkpt><trkpt lat="59.2576560192" lon="30.6894832570"><ele>62.14</ele><time>2026-09-01T14:36:31Z</time></trkpt><trkpt lat="59.2576536722" lon="30.6894907169"><ele>61.66</ele><time>2026-09-01T14:36:35Z</time></trkpt><trkpt lat="59.2576215696" lon="30.6893654075"><ele>62.14</ele><time>2026-09-01T14:36:55Z</time></trkpt><trkpt lat="59.2575821746" lon="30.6892747991"><ele>62.14</ele><time>2026-09-01T14:37:05Z</time></trkpt><trkpt lat="59.2575543467" lon="30.6890805066"><ele>62.14</ele><time>2026-09-01T14:37:24Z</time></trkpt><trkpt lat="59.2575441208" lon="30.6889992021"><ele>62.62</ele><time>2026-09-01T14:37:46Z</time></trkpt><trkpt lat="59.2574634869" lon="30.6888938416"><ele>62.62</ele><time>2026-09-01T14:38:04Z</time></trkpt><trkpt lat="59.2573970184" lon="30.6886614114"><ele>62.62</ele><time>2026-09-01T14:38:21Z</time></trkpt><trkpt lat="59.2574176379" lon="30.6886292249"><ele>63.10</ele><time>2026-09-01T14:38:46Z</time></trkpt><trkpt lat="59.2574562784" lon="30.6885703001"><ele>63.10</ele><time>2026-09-01T14:39:15Z</time></trkpt><trkpt lat="59.2574342340" lon="30.6885886565"><ele>63.10</ele><time>2026-09-01T14:39:38Z</time></trkpt><trkpt lat="59.2574382573" lon="30.6885894109"><ele>63.10</ele><time>2026-09-01T14:40:13Z</time></trkpt><trkpt lat="59.2574224155" lon="30.6885820348"><ele>63.10</ele><time>2026-09-01T14:40:48Z</time></trkpt><trkpt lat="59.2574275285" lon="30.6885355990"><ele>63.10</ele><time>2026-09-01T14:41:14Z</time></trkpt><trkpt lat="59.2574413586" lon="30.6885092799"><ele>63.10</ele><time>2026-09-01T14:41:31Z</time></trkpt><trkpt lat="59.2573444638" lon="30.6883892510"><ele>63.10</ele><time>2026-09-01T14:41:48Z</time></trkpt><trkpt lat="59.2572654225" lon="30.6881540548"><ele>62.62</ele><time>2026-09-01T14:42:07Z</time></trkpt><trkpt lat="59.2572183162" lon="30.6879732572"><ele>62.62</ele><time>2026-09-01T14:42:20Z</time></trkpt><trkpt lat="59.2571603134" lon="30.6877610274"><ele>63.10</ele><time>2026-09-01T14:42:37Z</time></trkpt><trkpt lat="59.2570700403" lon="30.6875337102"><ele>63.10</ele><time>2026-09-01T14:42:50Z</time></trkpt><trkpt lat="59.2569659371" lon="30.6871675048"><ele>63.10</ele><time>2026-09-01T14:43:12Z</time></trkpt><trkpt lat="59.2568278033" lon="30.6868924107"><ele>63.10</ele><time>2026-09-01T14:43:35Z</time></trkpt><trkpt lat="59.2567578983" lon="30.6867037341"><ele>63.10</ele><time>2026-09-01T14:43:50Z</time></trkpt><trkpt lat="59.2566900887" lon="30.6864772551"><ele>63.10</ele><time>2026-09-01T14:44:06Z</time></trkpt><trkpt lat="59.2566237878" lon="30.6861770153"><ele>63.10</ele><time>2026-09-01T14:44:23Z</time></trkpt><trkpt lat="59.2565449141" lon="30.6859947089"><ele>63.10</ele><time>2026-09-01T14:44:36Z</time></trkpt><trkpt lat="59.2564666271" lon="30.6856900267"><ele>62.62</ele><time>2026-09-01T14:44:55Z</time></trkpt><trkpt lat="59.2563595064" lon="30.6853985041"><ele>62.62</ele><time>2026-09-01T14:45:09Z</time></trkpt><trkpt lat="59.2562920321" lon="30.6850977615"><ele>62.62</ele><time>2026-09-01T14:45:29Z</time></trkpt><trkpt lat="59.2561610229" lon="30.6848334800"><ele>62.62</ele><time>2026-09-01T14:45:48Z</time></trkpt><trkpt lat="59.2560461909" lon="30.6848079991"><ele>62.62</ele><time>2026-09-01T14:46:11Z</time></trkpt><trkpt lat="59.2558928858" lon="30.6849997770"><ele>62.62</ele><time>2026-09-01T14:46:30Z</time></trkpt><trkpt lat="59.2558082286" lon="30.6852028705"><ele>63.10</ele><time>2026-09-01T14:46:52Z</time></trkpt><trkpt lat="59.2555908859" lon="30.6853389088"><ele>63.10</ele><time>2026-09-01T14:47:13Z</time></trkpt><trkpt lat="59.2555361520" lon="30.6854228117"><ele>63.10</ele><time>2026-09-01T14:47:23Z</time></trkpt><trkpt lat="59.2554082442" lon="30.6855065469"><ele>63.10</ele><time>2026-09-01T14:47:39Z</time></trkpt><trkpt lat="59.2553578690" lon="30.6855426729"><ele>63.10</ele><time>2026-09-01T14:47:45Z</time></trkpt><trkpt lat="59.2552214116" lon="30.6856594328"><ele>63.10</ele><time>2026-09-01T14:48:01Z</time></trkpt><trkpt lat="59.2552121915" lon="30.6856885180"><ele>64.07</ele><time>2026-09-01T14:48:15Z</time></trkpt><trkpt lat="59.2552584596" lon="30.6856924575"><ele>64.07</ele><time>2026-09-01T14:48:33Z</time></trkpt><trkpt lat="59.2552155443" lon="30.6856966484"><ele>64.07</ele><time>2026-09-01T14:48:44Z</time></trkpt><trkpt lat="59.2552833539" lon="30.6856842432"><ele>64.07</ele><time>2026-09-01T14:49:08Z</time></trkpt><trkpt lat="59.2552681826" lon="30.6857165135"><ele>64.07</ele><time>2026-09-01T14:49:37Z</time></trkpt><trkpt lat="59.2552360799" lon="30.6856940500"><ele>64.07</ele><time>2026-09-01T14:50:10Z</time></trkpt><trkpt lat="59.2552470602" lon="30.6856564153"><ele>64.07</ele><time>2026-09-01T14:50:28Z</time></trkpt><trkpt lat="59.2551870458" lon="30.6857275777"><ele>64.07</ele><time>2026-09-01T14:50:59Z</time></trkpt><trkpt lat="59.2551700305" lon="30.6856424175"><ele>64.07</ele><time>2026-09-01T14:51:18Z</time></trkpt><trkpt lat="59.2552706972" lon="30.6857135799"><ele>64.55</ele><time>2026-09-01T14:51:36Z</time></trkpt><trkpt lat="59.2552675121" lon="30.6857240573"><ele>64.55</ele><time>2026-09-01T14:52:04Z</time></trkpt><trkpt lat="59.2552145384" lon="30.6857248116"><ele>64.55</ele><time>2026-09-01T14:52:21Z</time></trkpt><trkpt lat="59.2552142031" lon="30.6857023481"><ele>64.07</ele><time>2026-09-01T14:52:40Z</time></trkpt><trkpt lat="59.2552311346" lon="30.6857108977"><ele>64.07</ele><time>2026-09-01T14:53:10Z</time></trkpt><trkpt lat="59.2552509997" lon="30.6856887694"><ele>64.55</ele><time>2026-09-01T14:53:56Z</time></trkpt><trkpt lat="59.2552619800" lon="30.6856450159"><ele>64.55</ele><time>2026-09-01T14:54:28Z</time></trkpt><trkpt lat="59.2552347388" lon="30.6857579201"><ele>64.55</ele><time>2026-09-01T14:54:58Z</time></trkpt><trkpt lat="59.2552174721" lon="30.6856955588"><ele>64.55</ele><time>2026-09-01T14:55:21Z</time></trkpt><trkpt lat="59.2552042287" lon="30.6856587622"><ele>64.55</ele><time>2026-09-01T14:55:46Z</time></trkpt><trkpt lat="59.2551964335" lon="30.6856805552"><ele>64.55</ele><time>2026-09-01T14:56:27Z</time></trkpt><trkpt lat="59.2552012950" lon="30.6856719218"><ele>64.55</ele><time>2026-09-01T14:57:07Z</time></trkpt><trkpt lat="59.2551729642" lon="30.6856347062"><ele>64.07</ele><time>2026-09-01T14:57:37Z</time></trkpt><trkpt lat="59.2551952600" lon="30.6855731830"><ele>64.07</ele><time>2026-09-01T14:58:05Z</time></trkpt><trkpt lat="59.2551639117" lon="30.6856197864"><ele>64.07</ele><time>2026-09-01T14:58:34Z</time></trkpt><trkpt lat="59.2551624868" lon="30.6856431719"><ele>64.07</ele><time>2026-09-01T14:58:54Z</time></trkpt><trkpt lat="59.2552264407" lon="30.6856897753"><ele>64.07</ele><time>2026-09-01T14:59:12Z</time></trkpt><trkpt lat="59.2551919073" lon="30.6856879313"><ele>64.07</ele><time>2026-09-01T14:59:40Z</time></trkpt><trkpt lat="59.2552074138" lon="30.6857155077"><ele>64.07</ele><time>2026-09-01T15:00:00Z</time></trkpt><trkpt lat="59.2552250996" lon="30.6857062038"><ele>64.07</ele><time>2026-09-01T15:00:23Z</time></trkpt><trkpt lat="59.2552048154" lon="30.6857689004"><ele>62.62</ele><time>2026-09-01T15:02:56Z</time></trkpt><trkpt lat="59.2551863752" lon="30.6857470237"><ele>62.62</ele><time>2026-09-01T15:03:12Z</time></trkpt><trkpt lat="59.2552023847" lon="30.6857098918"><ele>62.62</ele><time>2026-09-01T15:03:39Z</time></trkpt><trkpt lat="59.2551802564" lon="30.6856365502"><ele>63.58</ele><time>2026-09-01T15:03:55Z</time></trkpt><trkpt lat="59.2552046478" lon="30.6857364625"><ele>63.58</ele><time>2026-09-01T15:04:10Z</time></trkpt><trkpt lat="59.2551972717" lon="30.6857560761"><ele>63.58</ele><time>2026-09-01T15:04:32Z</time></trkpt><trkpt lat="59.2551772390" lon="30.6857074611"><ele>63.58</ele><time>2026-09-01T15:04:57Z</time></trkpt><trkpt lat="59.2551791668" lon="30.6855915394"><ele>63.58</ele><time>2026-09-01T15:05:24Z</time></trkpt><trkpt lat="59.2551830225" lon="30.6855220534"><ele>63.58</ele><time>2026-09-01T15:06:01Z</time></trkpt><trkpt lat="59.2551582959" lon="30.6855081394"><ele>63.58</ele><time>2026-09-01T15:06:27Z</time></trkpt><trkpt lat="59.2551948410" lon="30.6855617836"><ele>64.07</ele><time>2026-09-01T15:07:09Z</time></trkpt><trkpt lat="59.2551838607" lon="30.6855926290"><ele>64.07</ele><time>2026-09-01T15:07:52Z</time></trkpt><trkpt lat="59.2551940028" lon="30.6855934672"><ele>64.07</ele><time>2026-09-01T15:08:26Z</time></trkpt><trkpt lat="59.2552001216" lon="30.6856225524"><ele>64.07</ele><time>2026-09-01T15:09:40Z</time></trkpt><trkpt lat="59.2551968526" lon="30.6856291741"><ele>64.07</ele><time>2026-09-01T15:10:31Z</time></trkpt><trkpt lat="59.2551984452" lon="30.6856512185"><ele>64.07</ele><time>2026-09-01T15:10:59Z</time></trkpt><trkpt lat="59.2551767360" lon="30.6856228877"><ele>64.07</ele><time>2026-09-01T15:11:26Z</time></trkpt><trkpt lat="59.2552216630" lon="30.6856743526"><ele>64.55</ele><time>2026-09-01T15:12:04Z</time></trkpt><trkpt lat="59.2551961821" lon="30.6857471075"><ele>64.07</ele><time>2026-09-01T15:12:39Z</time></trkpt><trkpt lat="59.2551950924" lon="30.6855781283"><ele>64.07</ele><time>2026-09-01T15:13:16Z</time></trkpt><trkpt lat="59.2552173045" lon="30.6856627855"><ele>64.07</ele><time>2026-09-01T15:13:46Z</time></trkpt><trkpt lat="59.2552135326" lon="30.6857035216"><ele>64.55</ele><time>2026-09-01T15:13:56Z</time></trkpt><trkpt lat="59.2552028038" lon="30.6856921222"><ele>64.55</ele><time>2026-09-01T15:14:18Z</time></trkpt><trkpt lat="59.2551884707" lon="30.6857031863"><ele>64.55</ele><time>2026-09-01T15:14:44Z</time></trkpt><trkpt lat="59.2551907338" lon="30.6856971513"><ele>64.55</ele><time>2026-09-01T15:15:11Z</time></trkpt><trkpt lat="59.2551869620" lon="30.6857371330"><ele>65.03</ele><time>2026-09-01T15:15:36Z</time></trkpt><trkpt lat="59.2552010436" lon="30.6857071258"><ele>65.03</ele><time>2026-09-01T15:16:01Z</time></trkpt><trkpt lat="59.2551877163" lon="30.6857279129"><ele>65.51</ele><time>2026-09-01T15:16:44Z</time></trkpt><trkpt lat="59.2551748082" lon="30.6857222971"><ele>65.51</ele><time>2026-09-01T15:17:40Z</time></trkpt><trkpt lat="59.2551773228" lon="30.6857183576"><ele>65.51</ele><time>2026-09-01T15:18:23Z</time></trkpt><trkpt lat="59.2551779933" lon="30.6857755221"><ele>65.51</ele><time>2026-09-01T15:18:50Z</time></trkpt><trkpt lat="59.2552184779" lon="30.6856874283"><ele>65.51</ele><time>2026-09-01T15:18:58Z</time></trkpt><trkpt lat="59.2551922426" lon="30.6856983248"><ele>65.51</ele><time>2026-09-01T15:19:30Z</time></trkpt><trkpt lat="59.2551649176" lon="30.6858286634"><ele>65.51</ele><time>2026-09-01T15:20:07Z</time></trkpt><trkpt lat="59.2551616486" lon="30.6857417431"><ele>65.51</ele><time>2026-09-01T15:20:30Z</time></trkpt><trkpt lat="59.2552031390" lon="30.6857890170"><ele>65.51</ele><time>2026-09-01T15:21:03Z</time></trkpt><trkpt lat="59.2551800050" lon="30.6858030148"><ele>65.99</ele><time>2026-09-01T15:21:21Z</time></trkpt><trkpt lat="59.2551909015" lon="30.6857471913"><ele>65.99</ele><time>2026-09-01T15:21:55Z</time></trkpt><trkpt lat="59.2551950924" lon="30.6856316887"><ele>65.99</ele><time>2026-09-01T15:22:18Z</time></trkpt><trkpt lat="59.2552312184" lon="30.6856342871"><ele>65.99</ele><time>2026-09-01T15:22:30Z</time></trkpt><trkpt lat="59.2552224174" lon="30.6855787989"><ele>65.99</ele><time>2026-09-01T15:22:48Z</time></trkpt><trkpt lat="59.2552302126" lon="30.6856580917"><ele>65.99</ele><time>2026-09-01T15:23:06Z</time></trkpt><trkpt lat="59.2552031390" lon="30.6856492069"><ele>65.99</ele><time>2026-09-01T15:23:33Z</time></trkpt><trkpt lat="59.2551941704" lon="30.6856435072"><ele>65.99</ele><time>2026-09-01T15:24:19Z</time></trkpt><trkpt lat="59.2551832739" lon="30.6856447645"><ele>65.99</ele><time>2026-09-01T15:24:37Z</time></trkpt><trkpt lat="59.2551484890" lon="30.6856586784"><ele>65.99</ele><time>2026-09-01T15:24:54Z</time></trkpt><trkpt lat="59.2551818490" lon="30.6856537331"><ele>66.47</ele><time>2026-09-01T15:25:14Z</time></trkpt><trkpt lat="59.2551934998" lon="30.6856770348"><ele>66.47</ele><time>2026-09-01T15:25:48Z</time></trkpt><trkpt lat="59.2552001216" lon="30.6856973190"><ele>66.47</ele><time>2026-09-01T15:26:22Z</time></trkpt><trkpt lat="59.2551919911" lon="30.6857051142"><ele>66.47</ele><time>2026-09-01T15:26:38Z</time></trkpt><trkpt lat="59.2551950086" lon="30.6857126579"><ele>65.99</ele><time>2026-09-01T15:27:10Z</time></trkpt><trkpt lat="59.2552152928" lon="30.6857290864"><ele>66.47</ele><time>2026-09-01T15:27:36Z</time></trkpt><trkpt lat="59.2552355770" lon="30.6857696548"><ele>66.47</ele><time>2026-09-01T15:27:45Z</time></trkpt><trkpt lat="59.2552097607" lon="30.6856730953"><ele>66.47</ele><time>2026-09-01T15:28:13Z</time></trkpt><trkpt lat="59.2551680189" lon="30.6855695788"><ele>66.47</ele><time>2026-09-01T15:28:29Z</time></trkpt><trkpt lat="59.2551591340" lon="30.6855591014"><ele>66.47</ele><time>2026-09-01T15:28:32Z</time></trkpt><trkpt lat="59.2551707011" lon="30.6856151763"><ele>66.47</ele><time>2026-09-01T15:28:49Z</time></trkpt><trkpt lat="59.2552574538" lon="30.6857342832"><ele>66.47</ele><time>2026-09-01T15:29:02Z</time></trkpt><trkpt lat="59.2552254349" lon="30.6857231352"><ele>66.47</ele><time>2026-09-01T15:29:29Z</time></trkpt><trkpt lat="59.2551986128" lon="30.6856990792"><ele>66.47</ele><time>2026-09-01T15:30:00Z</time></trkpt><trkpt lat="59.2551566195" lon="30.6857673079"><ele>66.47</ele><time>2026-09-01T15:30:21Z</time></trkpt><trkpt lat="59.2551230080" lon="30.6858208682"><ele>66.47</ele><time>2026-09-01T15:30:36Z</time></trkpt><trkpt lat="59.2551937513" lon="30.6856827345"><ele>66.47</ele><time>2026-09-01T15:30:52Z</time></trkpt><trkpt lat="59.2552327272" lon="30.6856166851"><ele>66.47</ele><time>2026-09-01T15:31:09Z</time></trkpt><trkpt lat="59.2552030552" lon="30.6855943892"><ele>66.47</ele><time>2026-09-01T15:31:14Z</time></trkpt><trkpt lat="59.2551883869" lon="30.6856902782"><ele>66.47</ele><time>2026-09-01T15:31:55Z</time></trkpt><trkpt lat="59.2552147061" lon="30.6856606901"><ele>66.47</ele><time>2026-09-01T15:32:14Z</time></trkpt><trkpt lat="59.2551892251" lon="30.6857032701"><ele>66.47</ele><time>2026-09-01T15:32:37Z</time></trkpt><trkpt lat="59.2551691085" lon="30.6856989954"><ele>65.51</ele><time>2026-09-01T15:33:15Z</time></trkpt><trkpt lat="59.2552042287" lon="30.6857674755"><ele>65.51</ele><time>2026-09-01T15:33:39Z</time></trkpt><trkpt lat="59.2551482376" lon="30.6857029349"><ele>65.51</ele><time>2026-09-01T15:34:17Z</time></trkpt><trkpt lat="59.2551680189" lon="30.6857767794"><ele>65.51</ele><time>2026-09-01T15:34:51Z</time></trkpt><trkpt lat="59.2551446334" lon="30.6857099757"><ele>65.51</ele><time>2026-09-01T15:35:30Z</time></trkpt><trkpt lat="59.2551567033" lon="30.6857461017"><ele>65.99</ele><time>2026-09-01T15:36:03Z</time></trkpt><trkpt lat="59.2551774066" lon="30.6857015938"><ele>65.99</ele><time>2026-09-01T15:36:27Z</time></trkpt><trkpt lat="59.2551778257" lon="30.6857006717"><ele>65.99</ele><time>2026-09-01T15:36:31Z</time></trkpt><trkpt lat="59.2551934998" lon="30.6857071258"><ele>65.99</ele><time>2026-09-01T15:36:59Z</time></trkpt><trkpt lat="59.2552104313" lon="30.6857327744"><ele>65.99</ele><time>2026-09-01T15:37:32Z</time></trkpt><trkpt lat="59.2551767360" lon="30.6857120711"><ele>65.99</ele><time>2026-09-01T15:38:06Z</time></trkpt><trkpt lat="59.2552048992" lon="30.6857067905"><ele>65.99</ele><time>2026-09-01T15:38:31Z</time></trkpt><trkpt lat="59.2551753949" lon="30.6858068705"><ele>65.99</ele><time>2026-09-01T15:38:57Z</time></trkpt><trkpt lat="59.2552394327" lon="30.6857973151"><ele>65.99</ele><time>2026-09-01T15:39:26Z</time></trkpt><trkpt lat="59.2552028876" lon="30.6857457664"><ele>66.47</ele><time>2026-09-01T15:39:53Z</time></trkpt><trkpt lat="59.2551598046" lon="30.6856849138"><ele>66.47</ele><time>2026-09-01T15:40:36Z</time></trkpt><trkpt lat="59.2551917396" lon="30.6857009232"><ele>68.87</ele><time>2026-09-01T15:40:50Z</time></trkpt><trkpt lat="59.2551608942" lon="30.6856584270"><ele>67.43</ele><time>2026-09-01T15:41:39Z</time></trkpt><trkpt lat="59.2552000377" lon="30.6856749393"><ele>67.43</ele><time>2026-09-01T15:42:16Z</time></trkpt><trkpt lat="59.2552139517" lon="30.6857015099"><ele>67.43</ele><time>2026-09-01T15:43:02Z</time></trkpt><trkpt lat="59.2552018818" lon="30.6857013423"><ele>67.43</ele><time>2026-09-01T15:43:47Z</time></trkpt><trkpt lat="59.2551513389" lon="30.6857440062"><ele>67.43</ele><time>2026-09-01T15:44:48Z</time></trkpt><trkpt lat="59.2551336531" lon="30.6857357919"><ele>67.43</ele><time>2026-09-01T15:45:11Z</time></trkpt><trkpt lat="59.2551522609" lon="30.6856945530"><ele>67.43</ele><time>2026-09-01T15:45:31Z</time></trkpt><trkpt lat="59.2551919073" lon="30.6856981572"><ele>67.43</ele><time>2026-09-01T15:46:00Z</time></trkpt><trkpt lat="59.2551910691" lon="30.6857012585"><ele>67.43</ele><time>2026-09-01T15:46:24Z</time></trkpt><trkpt lat="59.2552126944" lon="30.6857150886"><ele>67.43</ele><time>2026-09-01T15:46:43Z</time></trkpt><trkpt lat="59.2551747244" lon="30.6856437586"><ele>66.95</ele><time>2026-09-01T15:47:14Z</time></trkpt><trkpt lat="59.2552225012" lon="30.6856758613"><ele>66.95</ele><time>2026-09-01T15:47:39Z</time></trkpt><trkpt lat="59.2552255187" lon="30.6857428327"><ele>66.95</ele><time>2026-09-01T15:48:05Z</time></trkpt><trkpt lat="59.2551900633" lon="30.6857293379"><ele>66.95</ele><time>2026-09-01T15:48:30Z</time></trkpt><trkpt lat="59.2551941704" lon="30.6856927928"><ele>66.95</ele><time>2026-09-01T15:49:08Z</time></trkpt><trkpt lat="59.2551900633" lon="30.6857093889"><ele>66.95</ele><time>2026-09-01T15:49:40Z</time></trkpt><trkpt lat="59.2551905662" lon="30.6857045274"><ele>66.95</ele><time>2026-09-01T15:50:09Z</time></trkpt><trkpt lat="59.2551983614" lon="30.6857077964"><ele>66.95</ele><time>2026-09-01T15:50:39Z</time></trkpt><trkpt lat="59.2551972717" lon="30.6857102271"><ele>66.95</ele><time>2026-09-01T15:51:03Z</time></trkpt><trkpt lat="59.2551918235" lon="30.6857020129"><ele>66.95</ele><time>2026-09-01T15:51:27Z</time></trkpt><trkpt lat="59.2552039772" lon="30.6857119035"><ele>66.95</ele><time>2026-09-01T15:52:02Z</time></trkpt><trkpt lat="59.2551740538" lon="30.6857101433"><ele>66.95</ele><time>2026-09-01T15:52:27Z</time></trkpt><trkpt lat="59.2551908176" lon="30.6857005879"><ele>66.95</ele><time>2026-09-01T15:52:59Z</time></trkpt><trkpt lat="59.2551948410" lon="30.6857077964"><ele>66.95</ele><time>2026-09-01T15:53:38Z</time></trkpt><trkpt lat="59.2552182265" lon="30.6857310142"><ele>66.95</ele><time>2026-09-01T15:54:08Z</time></trkpt><trkpt lat="59.2552100122" lon="30.6856882665"><ele>66.95</ele><time>2026-09-01T15:54:29Z</time></trkpt><trkpt lat="59.2551956791" lon="30.6856580917"><ele>66.47</ele><time>2026-09-01T15:54:57Z</time></trkpt><trkpt lat="59.2551993672" lon="30.6857670564"><ele>66.47</ele><time>2026-09-01T15:55:34Z</time></trkpt><trkpt lat="59.2552111857" lon="30.6857621949"><ele>66.47</ele><time>2026-09-01T15:55:45Z</time></trkpt><trkpt lat="59.2552535981" lon="30.6857178546"><ele>66.47</ele><time>2026-09-01T15:56:06Z</time></trkpt><trkpt lat="59.2552802525" lon="30.6857243087"><ele>66.47</ele><time>2026-09-01T15:56:24Z</time></trkpt><trkpt lat="59.2551762331" lon="30.6857041083"><ele>66.47</ele><time>2026-09-01T15:56:54Z</time></trkpt><trkpt lat="59.2552573700" lon="30.6857443415"><ele>66.47</ele><time>2026-09-01T15:57:27Z</time></trkpt><trkpt lat="59.2552200705" lon="30.6857670564"><ele>66.47</ele><time>2026-09-01T15:57:58Z</time></trkpt><trkpt lat="59.2552098446" lon="30.6857130770"><ele>66.47</ele><time>2026-09-01T15:58:30Z</time></trkpt><trkpt lat="59.2551994510" lon="30.6857459340"><ele>66.47</ele><time>2026-09-01T15:59:17Z</time></trkpt><trkpt lat="59.2551956791" lon="30.6857507955"><ele>67.43</ele><time>2026-09-01T15:59:55Z</time></trkpt><trkpt lat="59.2552183103" lon="30.6857463531"><ele>67.43</ele><time>2026-09-01T16:00:23Z</time></trkpt><trkpt lat="59.2552457191" lon="30.6858180184"><ele>67.43</ele><time>2026-09-01T16:00:52Z</time></trkpt><trkpt lat="59.2552424502" lon="30.6858523842"><ele>67.43</ele><time>2026-09-01T16:00:55Z</time></trkpt><trkpt lat="59.2552432884" lon="30.6860822998"><ele>67.43</ele><time>2026-09-01T16:01:11Z</time></trkpt><trkpt lat="59.2552489042" lon="30.6861099601"><ele>67.43</ele><time>2026-09-01T16:01:15Z</time></trkpt><trkpt lat="59.2552519217" lon="30.6863461621"><ele>67.43</ele><time>2026-09-01T16:01:29Z</time></trkpt><trkpt lat="59.2552456353" lon="30.6863573939"><ele>67.43</ele><time>2026-09-01T16:01:30Z</time></trkpt><trkpt lat="59.2552122753" lon="30.6865229364"><ele>67.43</ele><time>2026-09-01T16:01:45Z</time></trkpt><trkpt lat="59.2552595492" lon="30.6865923386"><ele>67.43</ele><time>2026-09-01T16:01:58Z</time></trkpt><trkpt lat="59.2552593816" lon="30.6867360882"><ele>67.43</ele><time>2026-09-01T16:02:12Z</time></trkpt><trkpt lat="59.2552613094" lon="30.6868953444"><ele>67.43</ele><time>2026-09-01T16:02:21Z</time></trkpt><trkpt lat="59.2553025484" lon="30.6871474721"><ele>67.43</ele><time>2026-09-01T16:02:38Z</time></trkpt><trkpt lat="59.2552814260" lon="30.6872335542"><ele>67.43</ele><time>2026-09-01T16:02:43Z</time></trkpt><trkpt lat="59.2552426178" lon="30.6873439439"><ele>67.43</ele><time>2026-09-01T16:02:56Z</time></trkpt><trkpt lat="59.2552944180" lon="30.6875989214"><ele>67.43</ele><time>2026-09-01T16:03:12Z</time></trkpt><trkpt lat="59.2552999500" lon="30.6878019311"><ele>67.91</ele><time>2026-09-01T16:03:27Z</time></trkpt><trkpt lat="59.2552428693" lon="30.6878697407"><ele>67.91</ele><time>2026-09-01T16:03:35Z</time></trkpt><trkpt lat="59.2551683541" lon="30.6880429946"><ele>67.91</ele><time>2026-09-01T16:03:49Z</time></trkpt><trkpt lat="59.2551843636" lon="30.6881346088"><ele>67.91</ele><time>2026-09-01T16:03:55Z</time></trkpt><trkpt lat="59.2551974393" lon="30.6881660409"><ele>67.91</ele><time>2026-09-01T16:03:57Z</time></trkpt><trkpt lat="59.2552388459" lon="30.6883953698"><ele>67.91</ele><time>2026-09-01T16:04:12Z</time></trkpt><trkpt lat="59.2552062403" lon="30.6884316634"><ele>67.91</ele><time>2026-09-01T16:04:19Z</time></trkpt><trkpt lat="59.2551234271" lon="30.6885504350"><ele>67.91</ele><time>2026-09-01T16:04:33Z</time></trkpt><trkpt lat="59.2551148776" lon="30.6885817833"><ele>67.91</ele><time>2026-09-01T16:04:36Z</time></trkpt><trkpt lat="59.2551069986" lon="30.6887528580"><ele>67.91</ele><time>2026-09-01T16:04:44Z</time></trkpt><trkpt lat="59.2550707050" lon="30.6888190750"><ele>67.91</ele><time>2026-09-01T16:04:56Z</time></trkpt><trkpt lat="59.2550452240" lon="30.6889984477"><ele>67.91</ele><time>2026-09-01T16:05:07Z</time></trkpt><trkpt lat="59.2551018018" lon="30.6892688479"><ele>67.91</ele><time>2026-09-01T16:05:21Z</time></trkpt><trkpt lat="59.2551350780" lon="30.6895234063"><ele>68.39</ele><time>2026-09-01T16:05:36Z</time></trkpt><trkpt lat="59.2550509237" lon="30.6897595245"><ele>68.39</ele><time>2026-09-01T16:05:49Z</time></trkpt><trkpt lat="59.2550164741" lon="30.6899652164"><ele>68.39</ele><time>2026-09-01T16:06:04Z</time></trkpt><trkpt lat="59.2550225090" lon="30.6900099758"><ele>68.39</ele><time>2026-09-01T16:06:07Z</time></trkpt><trkpt lat="59.2550476547" lon="30.6901649572"><ele>68.39</ele><time>2026-09-01T16:06:24Z</time></trkpt><trkpt lat="59.2550432123" lon="30.6901783682"><ele>68.39</ele><time>2026-09-01T16:06:28Z</time></trkpt><trkpt lat="59.2550513428" lon="30.6903038453"><ele>67.43</ele><time>2026-09-01T16:06:51Z</time></trkpt><trkpt lat="59.2550610658" lon="30.6903322600"><ele>67.43</ele><time>2026-09-01T16:06:55Z</time></trkpt><trkpt lat="59.2551896442" lon="30.6903512869"><ele>67.43</ele><time>2026-09-01T16:07:16Z</time></trkpt><trkpt lat="59.2551271152" lon="30.6903326791"><ele>67.91</ele><time>2026-09-01T16:07:28Z</time></trkpt><trkpt lat="59.2551333178" lon="30.6902724970"><ele>67.91</ele><time>2026-09-01T16:08:00Z</time></trkpt><trkpt lat="59.2552658357" lon="30.6903092936"><ele>68.39</ele><time>2026-09-01T16:08:33Z</time></trkpt><trkpt lat="59.2551620677" lon="30.6905408017"><ele>68.39</ele><time>2026-09-01T16:08:54Z</time></trkpt><trkpt lat="59.2551574577" lon="30.6904211920"><ele>67.43</ele><time>2026-09-01T16:09:14Z</time></trkpt><trkpt lat="59.2551605590" lon="30.6903741695"><ele>67.91</ele><time>2026-09-01T16:09:44Z</time></trkpt><trkpt lat="59.2551522609" lon="30.6902445015"><ele>67.91</ele><time>2026-09-01T16:09:58Z</time></trkpt><trkpt lat="59.2551506683" lon="30.6901972275"><ele>67.91</ele><time>2026-09-01T16:10:00Z</time></trkpt><trkpt lat="59.2550976947" lon="30.6900226325"><ele>67.91</ele><time>2026-09-01T16:10:09Z</time></trkpt><trkpt lat="59.2550060805" lon="30.6898567546"><ele>67.91</ele><time>2026-09-01T16:10:20Z</time></trkpt><trkpt lat="59.2550033983" lon="30.6897779647"><ele>67.91</ele><time>2026-09-01T16:10:24Z</time></trkpt><trkpt lat="59.2550210003" lon="30.6894805748"><ele>67.91</ele><time>2026-09-01T16:10:39Z</time></trkpt><trkpt lat="59.2550469004" lon="30.6893289462"><ele>67.91</ele><time>2026-09-01T16:10:45Z</time></trkpt><trkpt lat="59.2550220899" lon="30.6891227514"><ele>67.91</ele><time>2026-09-01T16:11:01Z</time></trkpt><trkpt lat="59.2550002970" lon="30.6888868008"><ele>67.91</ele><time>2026-09-01T16:11:14Z</time></trkpt><trkpt lat="59.2550110258" lon="30.6888216734"><ele>69.35</ele><time>2026-09-01T16:11:20Z</time></trkpt><trkpt lat="59.2550344113" lon="30.6886099465"><ele>69.35</ele><time>2026-09-01T16:11:33Z</time></trkpt><trkpt lat="59.2550360877" lon="30.6885791011"><ele>69.35</ele><time>2026-09-01T16:11:36Z</time></trkpt><trkpt lat="59.2549791746" lon="30.6883033365"><ele>69.35</ele><time>2026-09-01T16:11:51Z</time></trkpt><trkpt lat="59.2549659312" lon="30.6880667992"><ele>69.35</ele><time>2026-09-01T16:12:05Z</time></trkpt><trkpt lat="59.2549963575" lon="30.6879182719"><ele>69.35</ele><time>2026-09-01T16:12:19Z</time></trkpt><trkpt lat="59.2550198268" lon="30.6877990812"><ele>69.35</ele><time>2026-09-01T16:12:26Z</time></trkpt><trkpt lat="59.2550347466" lon="30.6876978278"><ele>69.35</ele><time>2026-09-01T16:12:31Z</time></trkpt><trkpt lat="59.2550466489" lon="30.6876274198"><ele>69.35</ele><time>2026-09-01T16:12:35Z</time></trkpt><trkpt lat="59.2550635803" lon="30.6874854304"><ele>69.35</ele><time>2026-09-01T16:12:46Z</time></trkpt><trkpt lat="59.2551038973" lon="30.6873101648"><ele>69.35</ele><time>2026-09-01T16:13:04Z</time></trkpt><trkpt lat="59.2550902348" lon="30.6870692689"><ele>69.35</ele><time>2026-09-01T16:13:17Z</time></trkpt><trkpt lat="59.2550874688" lon="30.6868903153"><ele>69.35</ele><time>2026-09-01T16:13:26Z</time></trkpt><trkpt lat="59.2550860438" lon="30.6868086755"><ele>69.35</ele><time>2026-09-01T16:13:30Z</time></trkpt><trkpt lat="59.2550959345" lon="30.6866775826"><ele>68.39</ele><time>2026-09-01T16:13:39Z</time></trkpt><trkpt lat="59.2551241815" lon="30.6864965335"><ele>68.39</ele><time>2026-09-01T16:13:54Z</time></trkpt><trkpt lat="59.2551592179" lon="30.6864055898"><ele>68.39</ele><time>2026-09-01T16:14:05Z</time></trkpt><trkpt lat="59.2551976908" lon="30.6862404663"><ele>68.39</ele><time>2026-09-01T16:14:18Z</time></trkpt><trkpt lat="59.2552324757" lon="30.6860373728"><ele>68.39</ele><time>2026-09-01T16:14:31Z</time></trkpt><trkpt lat="59.2552582920" lon="30.6858481094"><ele>68.39</ele><time>2026-09-01T16:14:44Z</time></trkpt><trkpt lat="59.2552512512" lon="30.6858326867"><ele>68.39</ele><time>2026-09-01T16:14:45Z</time></trkpt><trkpt lat="59.2551774066" lon="30.6857347023"><ele>68.39</ele><time>2026-09-01T16:15:01Z</time></trkpt><trkpt lat="59.2551861238" lon="30.6857595127"><ele>68.39</ele><time>2026-09-01T16:15:12Z</time></trkpt><trkpt lat="59.2552350741" lon="30.6857490353"><ele>68.39</ele><time>2026-09-01T16:15:34Z</time></trkpt><trkpt lat="59.2551628221" lon="30.6857867539"><ele>68.39</ele><time>2026-09-01T16:15:52Z</time></trkpt><trkpt lat="59.2551950924" lon="30.6857424136"><ele>67.91</ele><time>2026-09-01T16:16:05Z</time></trkpt><trkpt lat="59.2552103475" lon="30.6857073773"><ele>67.91</ele><time>2026-09-01T16:16:08Z</time></trkpt><trkpt lat="59.2551934160" lon="30.6856932119"><ele>67.91</ele><time>2026-09-01T16:16:40Z</time></trkpt><trkpt lat="59.2552189808" lon="30.6856724247"><ele>67.91</ele><time>2026-09-01T16:17:02Z</time></trkpt><trkpt lat="59.2551821005" lon="30.6857341994"><ele>67.91</ele><time>2026-09-01T16:17:17Z</time></trkpt><trkpt lat="59.2551925778" lon="30.6857404020"><ele>67.91</ele><time>2026-09-01T16:17:30Z</time></trkpt><trkpt lat="59.2551885545" lon="30.6857563276"><ele>67.91</ele><time>2026-09-01T16:17:34Z</time></trkpt><trkpt lat="59.2551693600" lon="30.6857856642"><ele>67.91</ele><time>2026-09-01T16:18:03Z</time></trkpt><trkpt lat="59.2551716231" lon="30.6857689004"><ele>67.91</ele><time>2026-09-01T16:18:30Z</time></trkpt><trkpt lat="59.2551637441" lon="30.6857347861"><ele>68.39</ele><time>2026-09-01T16:18:47Z</time></trkpt><trkpt lat="59.2552105989" lon="30.6857298408"><ele>68.39</ele><time>2026-09-01T16:19:09Z</time></trkpt><trkpt lat="59.2551898118" lon="30.6856866740"><ele>68.39</ele><time>2026-09-01T16:19:25Z</time></trkpt><trkpt lat="59.2551736347" lon="30.6856949721"><ele>68.39</ele><time>2026-09-01T16:19:42Z</time></trkpt><trkpt lat="59.2552291229" lon="30.6857165135"><ele>68.39</ele><time>2026-09-01T16:20:00Z</time></trkpt><trkpt lat="59.2551884707" lon="30.6856695749"><ele>68.39</ele><time>2026-09-01T16:20:14Z</time></trkpt><trkpt lat="59.2551948410" lon="30.6857801322"><ele>68.39</ele><time>2026-09-01T16:20:49Z</time></trkpt><trkpt lat="59.2551966012" lon="30.6857466046"><ele>68.39</ele><time>2026-09-01T16:20:55Z</time></trkpt><trkpt lat="59.2551677674" lon="30.6857079640"><ele>68.39</ele><time>2026-09-01T16:21:23Z</time></trkpt><trkpt lat="59.2552571185" lon="30.6857021805"><ele>68.39</ele><time>2026-09-01T16:21:40Z</time></trkpt><trkpt lat="59.2551846988" lon="30.6857012585"><ele>68.39</ele><time>2026-09-01T16:21:56Z</time></trkpt><trkpt lat="59.2552196514" lon="30.6856727600"><ele>68.39</ele><time>2026-09-01T16:22:10Z</time></trkpt><trkpt lat="59.2552193161" lon="30.6856883503"><ele>68.39</ele><time>2026-09-01T16:22:28Z</time></trkpt><trkpt lat="59.2552261055" lon="30.6856850814"><ele>68.39</ele><time>2026-09-01T16:22:45Z</time></trkpt><trkpt lat="59.2551914044" lon="30.6857575011"><ele>68.39</ele><time>2026-09-01T16:23:19Z</time></trkpt><trkpt lat="59.2552012112" lon="30.6857885979"><ele>68.39</ele><time>2026-09-01T16:23:27Z</time></trkpt><trkpt lat="59.2552057374" lon="30.6857857481"><ele>68.39</ele><time>2026-09-01T16:23:49Z</time></trkpt><trkpt lat="59.2552106827" lon="30.6858176831"><ele>68.39</ele><time>2026-09-01T16:24:12Z</time></trkpt><trkpt lat="59.2552440427" lon="30.6857569143"><ele>68.39</ele><time>2026-09-01T16:24:17Z</time></trkpt><trkpt lat="59.2552382592" lon="30.6856782082"><ele>68.39</ele><time>2026-09-01T16:24:33Z</time></trkpt><trkpt lat="59.2552100122" lon="30.6856850814"><ele>68.39</ele><time>2026-09-01T16:24:51Z</time></trkpt><trkpt lat="59.2552033067" lon="30.6857532263"><ele>68.39</ele><time>2026-09-01T16:25:19Z</time></trkpt><trkpt lat="59.2552090064" lon="30.6858093850"><ele>68.87</ele><time>2026-09-01T16:25:54Z</time></trkpt><trkpt lat="59.2552215792" lon="30.6857860833"><ele>68.87</ele><time>2026-09-01T16:26:19Z</time></trkpt><trkpt lat="59.2552075814" lon="30.6857581716"><ele>68.87</ele><time>2026-09-01T16:26:42Z</time></trkpt><trkpt lat="59.2551833577" lon="30.6858125702"><ele>68.87</ele><time>2026-09-01T16:27:26Z</time></trkpt><trkpt lat="59.2551655043" lon="30.6857346185"><ele>68.87</ele><time>2026-09-01T16:27:49Z</time></trkpt><trkpt lat="59.2551887222" lon="30.6857266556"><ele>68.87</ele><time>2026-09-01T16:28:04Z</time></trkpt><trkpt lat="59.2551655043" lon="30.6857821438"><ele>68.87</ele><time>2026-09-01T16:28:27Z</time></trkpt><trkpt lat="59.2552184779" lon="30.6858168449"><ele>68.87</ele><time>2026-09-01T16:28:47Z</time></trkpt><trkpt lat="59.2553465534" lon="30.6858001649"><ele>68.87</ele><time>2026-09-01T16:29:03Z</time></trkpt><trkpt lat="59.2553888820" lon="30.6858762726"><ele>68.87</ele><time>2026-09-01T16:29:20Z</time></trkpt><trkpt lat="59.2554159556" lon="30.6856623664"><ele>68.87</ele><time>2026-09-01T16:29:35Z</time></trkpt><trkpt lat="59.2553891335" lon="30.6855244003"><ele>68.87</ele><time>2026-09-01T16:29:48Z</time></trkpt><trkpt lat="59.2553729564" lon="30.6855333690"><ele>68.87</ele><time>2026-09-01T16:29:51Z</time></trkpt><trkpt lat="59.2552774865" lon="30.6855641305"><ele>68.87</ele><time>2026-09-01T16:30:06Z</time></trkpt><trkpt lat="59.2551871296" lon="30.6857093889"><ele>68.87</ele><time>2026-09-01T16:30:25Z</time></trkpt><trkpt lat="59.2552408576" lon="30.6857639551"><ele>68.87</ele><time>2026-09-01T16:30:35Z</time></trkpt><trkpt lat="59.2552498262" lon="30.6857795455"><ele>68.87</ele><time>2026-09-01T16:30:52Z</time></trkpt><trkpt lat="59.2552001216" lon="30.6857789587"><ele>68.87</ele><time>2026-09-01T16:31:07Z</time></trkpt><trkpt lat="59.2551151291" lon="30.6858631130"><ele>69.83</ele><time>2026-09-01T16:31:23Z</time></trkpt><trkpt lat="59.2551620677" lon="30.6857518852"><ele>70.31</ele><time>2026-09-01T16:31:43Z</time></trkpt><trkpt lat="59.2552409414" lon="30.6857311819"><ele>70.31</ele><time>2026-09-01T16:31:56Z</time></trkpt><trkpt lat="59.2552281171" lon="30.6856439263"><ele>70.31</ele><time>2026-09-01T16:32:21Z</time></trkpt><trkpt lat="59.2552115209" lon="30.6857233867"><ele>70.31</ele><time>2026-09-01T16:32:37Z</time></trkpt><trkpt lat="59.2552266922" lon="30.6857526395"><ele>70.31</ele><time>2026-09-01T16:32:43Z</time></trkpt><trkpt lat="59.2552457191" lon="30.6857637037"><ele>70.31</ele><time>2026-09-01T16:33:03Z</time></trkpt><trkpt lat="59.2552609742" lon="30.6857150886"><ele>70.31</ele><time>2026-09-01T16:33:18Z</time></trkpt><trkpt lat="59.2552025523" lon="30.6857566629"><ele>70.31</ele><time>2026-09-01T16:33:31Z</time></trkpt><trkpt lat="59.2552403547" lon="30.6858178508"><ele>70.31</ele><time>2026-09-01T16:34:03Z</time></trkpt><trkpt lat="59.2552330624" lon="30.6858107261"><ele>70.31</ele><time>2026-09-01T16:34:04Z</time></trkpt><trkpt lat="59.2552001216" lon="30.6857406534"><ele>70.31</ele><time>2026-09-01T16:34:18Z</time></trkpt><trkpt lat="59.2551690247" lon="30.6858222932"><ele>70.31</ele><time>2026-09-01T16:35:03Z</time></trkpt><trkpt lat="59.2552113533" lon="30.6858380511"><ele>70.79</ele><time>2026-09-01T16:35:32Z</time></trkpt><trkpt lat="59.2552015465" lon="30.6857751869"><ele>70.79</ele><time>2026-09-01T16:36:01Z</time></trkpt><trkpt lat="59.2551742215" lon="30.6857447606"><ele>70.79</ele><time>2026-09-01T16:36:18Z</time></trkpt><trkpt lat="59.2551779095" lon="30.6857284158"><ele>70.79</ele><time>2026-09-01T16:36:40Z</time></trkpt><trkpt lat="59.2551595531" lon="30.6857199501"><ele>70.79</ele><time>2026-09-01T16:37:09Z</time></trkpt><trkpt lat="59.2551472317" lon="30.6856992468"><ele>69.83</ele><time>2026-09-01T16:37:41Z</time></trkpt><trkpt lat="59.2551525962" lon="30.6856894400"><ele>69.83</ele><time>2026-09-01T16:38:13Z</time></trkpt><trkpt lat="59.2551401071" lon="30.6856611930"><ele>69.83</ele><time>2026-09-01T16:38:42Z</time></trkpt><trkpt lat="59.2551728804" lon="30.6857010070"><ele>69.83</ele><time>2026-09-01T16:39:33Z</time></trkpt><trkpt lat="59.2551715393" lon="30.6857122388"><ele>69.83</ele><time>2026-09-01T16:40:09Z</time></trkpt><trkpt lat="59.2551796697" lon="30.6857482810"><ele>69.83</ele><time>2026-09-01T16:40:50Z</time></trkpt><trkpt lat="59.2551552784" lon="30.6857787073"><ele>69.35</ele><time>2026-09-01T16:41:25Z</time></trkpt><trkpt lat="59.2550816853" lon="30.6858166773"><ele>69.35</ele><time>2026-09-01T16:41:39Z</time></trkpt><trkpt lat="59.2550251074" lon="30.6858784519"><ele>69.35</ele><time>2026-09-01T16:41:48Z</time></trkpt><trkpt lat="59.2549873050" lon="30.6859082915"><ele>69.35</ele><time>2026-09-01T16:41:52Z</time></trkpt><trkpt lat="59.2548257858" lon="30.6860589143"><ele>69.35</ele><time>2026-09-01T16:42:10Z</time></trkpt><trkpt lat="59.2547310703" lon="30.6861827988"><ele>69.35</ele><time>2026-09-01T16:42:25Z</time></trkpt><trkpt lat="59.2546880711" lon="30.6862291507"><ele>69.35</ele><time>2026-09-01T16:42:37Z</time></trkpt><trkpt lat="59.2546538729" lon="30.6862996425"><ele>69.35</ele><time>2026-09-01T16:42:52Z</time></trkpt><trkpt lat="59.2546000611" lon="30.6863544602"><ele>68.87</ele><time>2026-09-01T16:43:07Z</time></trkpt><trkpt lat="59.2546134721" lon="30.6864420511"><ele>68.87</ele><time>2026-09-01T16:43:19Z</time></trkpt><trkpt lat="59.2545022443" lon="30.6864748243"><ele>68.87</ele><time>2026-09-01T16:43:33Z</time></trkpt><trkpt lat="59.2544328421" lon="30.6864928454"><ele>68.87</ele><time>2026-09-01T16:43:47Z</time></trkpt><trkpt lat="59.2543269787" lon="30.6865485013"><ele>68.87</ele><time>2026-09-01T16:44:03Z</time></trkpt><trkpt lat="59.2542576604" lon="30.6866288837"><ele>68.87</ele><time>2026-09-01T16:44:16Z</time></trkpt><trkpt lat="59.2541976459" lon="30.6867351662"><ele>68.87</ele><time>2026-09-01T16:44:30Z</time></trkpt><trkpt lat="59.2541082948" lon="30.6868333183"><ele>68.87</ele><time>2026-09-01T16:44:44Z</time></trkpt><trkpt lat="59.2540120706" lon="30.6868613139"><ele>68.87</ele><time>2026-09-01T16:44:59Z</time></trkpt><trkpt lat="59.2539523076" lon="30.6869328953"><ele>68.87</ele><time>2026-09-01T16:45:08Z</time></trkpt><trkpt lat="59.2539153434" lon="30.6870062370"><ele>68.87</ele><time>2026-09-01T16:45:19Z</time></trkpt><trkpt lat="59.2538342904" lon="30.6870590430"><ele>68.87</ele><time>2026-09-01T16:45:36Z</time></trkpt><trkpt lat="59.2537462804" lon="30.6871517468"><ele>68.87</ele><time>2026-09-01T16:45:51Z</time></trkpt><trkpt lat="59.2537019402" lon="30.6871737912"><ele>68.87</ele><time>2026-09-01T16:46:02Z</time></trkpt><trkpt lat="59.2536101583" lon="30.6871980149"><ele>68.87</ele><time>2026-09-01T16:46:16Z</time></trkpt><trkpt lat="59.2535495572" lon="30.6872649863"><ele>68.87</ele><time>2026-09-01T16:46:32Z</time></trkpt><trkpt lat="59.2534886207" lon="30.6872612983"><ele>68.87</ele><time>2026-09-01T16:46:42Z</time></trkpt><trkpt lat="59.2534449510" lon="30.6873306166"><ele>68.87</ele><time>2026-09-01T16:46:57Z</time></trkpt><trkpt lat="59.2534151115" lon="30.6872665789"><ele>68.87</ele><time>2026-09-01T16:47:13Z</time></trkpt><trkpt lat="59.2533561867" lon="30.6873694248"><ele>68.87</ele><time>2026-09-01T16:47:30Z</time></trkpt><trkpt lat="59.2533342261" lon="30.6874246616"><ele>68.87</ele><time>2026-09-01T16:47:36Z</time></trkpt><trkpt lat="59.2531986907" lon="30.6874659844"><ele>68.87</ele><time>2026-09-01T16:47:55Z</time></trkpt><trkpt lat="59.2531753890" lon="30.6875052117"><ele>68.87</ele><time>2026-09-01T16:47:59Z</time></trkpt><trkpt lat="59.2530683521" lon="30.6876278389"><ele>68.87</ele><time>2026-09-01T16:48:17Z</time></trkpt><trkpt lat="59.2530028056" lon="30.6876751967"><ele>68.87</ele><time>2026-09-01T16:48:30Z</time></trkpt><trkpt lat="59.2529323138" lon="30.6877178606"><ele>68.87</ele><time>2026-09-01T16:48:44Z</time></trkpt><trkpt lat="59.2528895661" lon="30.6878093909"><ele>68.87</ele><time>2026-09-01T16:49:00Z</time></trkpt><trkpt lat="59.2527676933" lon="30.6878747698"><ele>68.87</ele><time>2026-09-01T16:49:15Z</time></trkpt><trkpt lat="59.2527286336" lon="30.6879561581"><ele>68.87</ele><time>2026-09-01T16:49:25Z</time></trkpt><trkpt lat="59.2527054995" lon="30.6879714131"><ele>68.87</ele><time>2026-09-01T16:49:29Z</time></trkpt><trkpt lat="59.2526367679" lon="30.6880372111"><ele>68.87</ele><time>2026-09-01T16:49:39Z</time></trkpt><trkpt lat="59.2526464909" lon="30.6881153304"><ele>68.87</ele><time>2026-09-01T16:49:54Z</time></trkpt><trkpt lat="59.2525660247" lon="30.6881779432"><ele>68.39</ele><time>2026-09-01T16:50:13Z</time></trkpt><trkpt lat="59.2525414657" lon="30.6882081181"><ele>68.39</ele><time>2026-09-01T16:50:21Z</time></trkpt><trkpt lat="59.2524137255" lon="30.6883388758"><ele>68.39</ele><time>2026-09-01T16:50:42Z</time></trkpt><trkpt lat="59.2523016594" lon="30.6884332560"><ele>68.39</ele><time>2026-09-01T16:51:10Z</time></trkpt><trkpt lat="59.2522006575" lon="30.6885768380"><ele>68.39</ele><time>2026-09-01T16:51:25Z</time></trkpt><trkpt lat="59.2520839814" lon="30.6886153109"><ele>68.39</ele><time>2026-09-01T16:51:44Z</time></trkpt><trkpt lat="59.2519466020" lon="30.6888907403"><ele>68.39</ele><time>2026-09-01T16:52:16Z</time></trkpt><trkpt lat="59.2517685704" lon="30.6890126970"><ele>67.91</ele><time>2026-09-01T16:52:47Z</time></trkpt><trkpt lat="59.2517190333" lon="30.6890707836"><ele>67.91</ele><time>2026-09-01T16:53:05Z</time></trkpt><trkpt lat="59.2516360525" lon="30.6890400220"><ele>67.91</ele><time>2026-09-01T16:53:25Z</time></trkpt><trkpt lat="59.2515072227" lon="30.6891319714"><ele>67.43</ele><time>2026-09-01T16:53:51Z</time></trkpt><trkpt lat="59.2513970006" lon="30.6892677583"><ele>67.43</ele><time>2026-09-01T16:54:13Z</time></trkpt><trkpt lat="59.2512725294" lon="30.6893436983"><ele>66.95</ele><time>2026-09-01T16:54:31Z</time></trkpt><trkpt lat="59.2511674203" lon="30.6894246675"><ele>66.95</ele><time>2026-09-01T16:54:48Z</time></trkpt><trkpt lat="59.2511597089" lon="30.6894536689"><ele>66.95</ele><time>2026-09-01T16:54:53Z</time></trkpt><trkpt lat="59.2510758061" lon="30.6894856039"><ele>66.95</ele><time>2026-09-01T16:55:08Z</time></trkpt><trkpt lat="59.2510059010" lon="30.6896360591"><ele>66.95</ele><time>2026-09-01T16:55:26Z</time></trkpt><trkpt lat="59.2509248480" lon="30.6896570977"><ele>66.95</ele><time>2026-09-01T16:55:43Z</time></trkpt><trkpt lat="59.2508478183" lon="30.6898881868"><ele>66.95</ele><time>2026-09-01T16:56:09Z</time></trkpt><trkpt lat="59.2507651728" lon="30.6899575889"><ele>66.95</ele><time>2026-09-01T16:56:22Z</time></trkpt><trkpt lat="59.2506585550" lon="30.6899036095"><ele>66.47</ele><time>2026-09-01T16:56:40Z</time></trkpt><trkpt lat="59.2505966965" lon="30.6899507996"><ele>66.47</ele><time>2026-09-01T16:56:53Z</time></trkpt><trkpt lat="59.2505020648" lon="30.6900530588"><ele>66.47</ele><time>2026-09-01T16:57:07Z</time></trkpt><trkpt lat="59.2504508514" lon="30.6900998298"><ele>66.47</ele><time>2026-09-01T16:57:13Z</time></trkpt><trkpt lat="59.2503919266" lon="30.6901354529"><ele>66.47</ele><time>2026-09-01T16:57:25Z</time></trkpt><trkpt lat="59.2503392044" lon="30.6902208645"><ele>66.47</ele><time>2026-09-01T16:57:39Z</time></trkpt><trkpt lat="59.2502511945" lon="30.6902873330"><ele>65.99</ele><time>2026-09-01T16:57:52Z</time></trkpt><trkpt lat="59.2501879111" lon="30.6903600041"><ele>65.99</ele><time>2026-09-01T16:58:06Z</time></trkpt><trkpt lat="59.2500995658" lon="30.6904249638"><ele>65.99</ele><time>2026-09-01T16:58:19Z</time></trkpt><trkpt lat="59.2499892600" lon="30.6905147340"><ele>65.51</ele><time>2026-09-01T16:58:38Z</time></trkpt><trkpt lat="59.2498996574" lon="30.6906176638"><ele>65.51</ele><time>2026-09-01T16:58:52Z</time></trkpt><trkpt lat="59.2498647887" lon="30.6906350143"><ele>65.51</ele><time>2026-09-01T16:59:08Z</time></trkpt><trkpt lat="59.2498779483" lon="30.6907331664"><ele>65.51</ele><time>2026-09-01T16:59:29Z</time></trkpt><trkpt lat="59.2497980688" lon="30.6907190010"><ele>65.51</ele><time>2026-09-01T16:59:48Z</time></trkpt><trkpt lat="59.2497896031" lon="30.6907816138"><ele>65.51</ele><time>2026-09-01T16:59:55Z</time></trkpt><trkpt lat="59.2497098073" lon="30.6908886507"><ele>65.51</ele><time>2026-09-01T17:00:10Z</time></trkpt><trkpt lat="59.2497034371" lon="30.6908806041"><ele>65.51</ele><time>2026-09-01T17:00:11Z</time></trkpt><trkpt lat="59.2495938018" lon="30.6908956915"><ele>65.03</ele><time>2026-09-01T17:00:26Z</time></trkpt><trkpt lat="59.2494949792" lon="30.6909390260"><ele>65.03</ele><time>2026-09-01T17:00:40Z</time></trkpt><trkpt lat="59.2493881099" lon="30.6910087634"><ele>65.03</ele><time>2026-09-01T17:00:55Z</time></trkpt><trkpt lat="59.2493076436" lon="30.6910753995"><ele>65.03</ele><time>2026-09-01T17:01:10Z</time></trkpt><trkpt lat="59.2492369842" lon="30.6912008766"><ele>65.03</ele><time>2026-09-01T17:01:23Z</time></trkpt><trkpt lat="59.2491268460" lon="30.6913436204"><ele>65.03</ele><time>2026-09-01T17:01:38Z</time></trkpt><trkpt lat="59.2490157019" lon="30.6914056465"><ele>65.03</ele><time>2026-09-01T17:01:51Z</time></trkpt><trkpt lat="59.2489699367" lon="30.6913665868"><ele>65.03</ele><time>2026-09-01T17:02:00Z</time></trkpt><trkpt lat="59.2489488982" lon="30.6913523376"><ele>65.03</ele><time>2026-09-01T17:02:16Z</time></trkpt><trkpt lat="59.2489481438" lon="30.6912718713"><ele>65.03</ele><time>2026-09-01T17:02:40Z</time></trkpt><trkpt lat="59.2489750497" lon="30.6912921555"><ele>65.03</ele><time>2026-09-01T17:02:50Z</time></trkpt></trkseg></trk></gpx>